<?xml version="1.0" encoding="UTF-8" standalone="no" ?>
<gpx xmlns="http://www.topografix.com/GPX/1/1" xmlns:xsi="http://www.w3.org/2001/XMLSchema-instance" xsi:schemaLocation="http://www.topografix.com/GPX/1/1 http://www.topografix.com/GPX/1/1/gpx.xsd" version="1.1" creator="VisuGPX - https://www.visugpx.com">
  <metadata>
    <name>Gorges de la Carança - Abri de Balmère</name>
    <desc><![CDATA[incontournable, majeur, à réserver, toutefois à des randonneurs n'ayant aucune appréhension  du vide]]></desc>
  </metadata>
  <trk>
    <name><![CDATA[Thuès-Entre-Valls Marche 14 avr. 2019 à 11:30]]></name>
    <trkseg>
      <trkpt lat="42.52261" lon="2.22147">
        <ele>831</ele>
        <time>2019-04-14T09:30:53Z</time>
      </trkpt>
      <trkpt lat="42.52261" lon="2.22147">
        <ele>831</ele>
        <time>2019-04-14T09:30:54Z</time>
      </trkpt>
      <trkpt lat="42.52257" lon="2.22159">
        <ele>827</ele>
        <time>2019-04-14T09:31:20Z</time>
      </trkpt>
      <trkpt lat="42.52249" lon="2.22165">
        <ele>828</ele>
        <time>2019-04-14T09:31:32Z</time>
      </trkpt>
      <trkpt lat="42.52239" lon="2.22165">
        <ele>828</ele>
        <time>2019-04-14T09:31:42Z</time>
      </trkpt>
      <trkpt lat="42.52229" lon="2.22164">
        <ele>828</ele>
        <time>2019-04-14T09:31:50Z</time>
      </trkpt>
      <trkpt lat="42.52221" lon="2.22168">
        <ele>828</ele>
        <time>2019-04-14T09:31:56Z</time>
      </trkpt>
      <trkpt lat="42.52211" lon="2.22167">
        <ele>831</ele>
        <time>2019-04-14T09:32:12Z</time>
      </trkpt>
      <trkpt lat="42.52201" lon="2.22163">
        <ele>832</ele>
        <time>2019-04-14T09:32:20Z</time>
      </trkpt>
      <trkpt lat="42.52129" lon="2.22088">
        <ele>859</ele>
        <time>2019-04-14T09:32:45Z</time>
      </trkpt>
      <trkpt lat="42.51896" lon="2.22169">
        <ele>895.6</ele>
        <time>2019-04-14T09:36:50Z</time>
      </trkpt>
      <trkpt lat="42.51905" lon="2.22215">
        <ele>892</ele>
        <time>2019-04-14T09:37:05Z</time>
      </trkpt>
      <trkpt lat="42.5189" lon="2.2222">
        <ele>883</ele>
        <time>2019-04-14T09:37:21Z</time>
      </trkpt>
      <trkpt lat="42.51891" lon="2.22232">
        <ele>872</ele>
        <time>2019-04-14T09:37:32Z</time>
      </trkpt>
      <trkpt lat="42.51895" lon="2.22244">
        <ele>881</ele>
        <time>2019-04-14T09:37:38Z</time>
      </trkpt>
      <trkpt lat="42.51887" lon="2.22251">
        <ele>883</ele>
        <time>2019-04-14T09:37:47Z</time>
      </trkpt>
      <trkpt lat="42.51878" lon="2.2225">
        <ele>875</ele>
        <time>2019-04-14T09:37:52Z</time>
      </trkpt>
      <trkpt lat="42.5187" lon="2.22258">
        <ele>872</ele>
        <time>2019-04-14T09:38:06Z</time>
      </trkpt>
      <trkpt lat="42.51877" lon="2.22286">
        <ele>866</ele>
        <time>2019-04-14T09:38:18Z</time>
      </trkpt>
      <trkpt lat="42.51864" lon="2.22288">
        <ele>874</ele>
        <time>2019-04-14T09:38:24Z</time>
      </trkpt>
      <trkpt lat="42.51844" lon="2.22295">
        <ele>878</ele>
        <time>2019-04-14T09:38:32Z</time>
      </trkpt>
      <trkpt lat="42.51837" lon="2.22304">
        <ele>874</ele>
        <time>2019-04-14T09:38:44Z</time>
      </trkpt>
      <trkpt lat="42.51836" lon="2.22317">
        <ele>874</ele>
        <time>2019-04-14T09:38:53Z</time>
      </trkpt>
      <trkpt lat="42.51828" lon="2.22309">
        <ele>875</ele>
        <time>2019-04-14T09:39:00Z</time>
      </trkpt>
      <trkpt lat="42.51827" lon="2.22322">
        <ele>874</ele>
        <time>2019-04-14T09:39:07Z</time>
      </trkpt>
      <trkpt lat="42.51822" lon="2.22334">
        <ele>873</ele>
        <time>2019-04-14T09:39:16Z</time>
      </trkpt>
      <trkpt lat="42.51822" lon="2.22348">
        <ele>874</ele>
        <time>2019-04-14T09:39:21Z</time>
      </trkpt>
      <trkpt lat="42.51813" lon="2.22347">
        <ele>877</ele>
        <time>2019-04-14T09:39:36Z</time>
      </trkpt>
      <trkpt lat="42.518" lon="2.22347">
        <ele>883</ele>
        <time>2019-04-14T09:39:53Z</time>
      </trkpt>
      <trkpt lat="42.51786" lon="2.2234">
        <ele>881</ele>
        <time>2019-04-14T09:40:14Z</time>
      </trkpt>
      <trkpt lat="42.51779" lon="2.22333">
        <ele>879</ele>
        <time>2019-04-14T09:41:18Z</time>
      </trkpt>
      <trkpt lat="42.51767" lon="2.22323">
        <ele>880</ele>
        <time>2019-04-14T09:41:55Z</time>
      </trkpt>
      <trkpt lat="42.51764" lon="2.22311">
        <ele>880</ele>
        <time>2019-04-14T09:42:17Z</time>
      </trkpt>
      <trkpt lat="42.51761" lon="2.22324">
        <ele>880</ele>
        <time>2019-04-14T09:42:32Z</time>
      </trkpt>
      <trkpt lat="42.51767" lon="2.22333">
        <ele>878</ele>
        <time>2019-04-14T09:42:42Z</time>
      </trkpt>
      <trkpt lat="42.51756" lon="2.22336">
        <ele>893</ele>
        <time>2019-04-14T09:43:34Z</time>
      </trkpt>
      <trkpt lat="42.51752" lon="2.22325">
        <ele>894</ele>
        <time>2019-04-14T09:43:51Z</time>
      </trkpt>
      <trkpt lat="42.51745" lon="2.22332">
        <ele>898</ele>
        <time>2019-04-14T09:44:14Z</time>
      </trkpt>
      <trkpt lat="42.51736" lon="2.22336">
        <ele>903</ele>
        <time>2019-04-14T09:45:00Z</time>
      </trkpt>
      <trkpt lat="42.51727" lon="2.22337">
        <ele>904</ele>
        <time>2019-04-14T09:45:18Z</time>
      </trkpt>
      <trkpt lat="42.51735" lon="2.22335">
        <ele>905</ele>
        <time>2019-04-14T09:45:26Z</time>
      </trkpt>
      <trkpt lat="42.51726" lon="2.22332">
        <ele>907</ele>
        <time>2019-04-14T09:45:35Z</time>
      </trkpt>
      <trkpt lat="42.51718" lon="2.22339">
        <ele>911</ele>
        <time>2019-04-14T09:45:51Z</time>
      </trkpt>
      <trkpt lat="42.51709" lon="2.22343">
        <ele>914</ele>
        <time>2019-04-14T09:46:20Z</time>
      </trkpt>
      <trkpt lat="42.51703" lon="2.22352">
        <ele>915</ele>
        <time>2019-04-14T09:46:34Z</time>
      </trkpt>
      <trkpt lat="42.51697" lon="2.22362">
        <ele>918</ele>
        <time>2019-04-14T09:46:43Z</time>
      </trkpt>
      <trkpt lat="42.51693" lon="2.22373">
        <ele>921</ele>
        <time>2019-04-14T09:46:53Z</time>
      </trkpt>
      <trkpt lat="42.51692" lon="2.22386">
        <ele>919</ele>
        <time>2019-04-14T09:47:02Z</time>
      </trkpt>
      <trkpt lat="42.51685" lon="2.22395">
        <ele>925</ele>
        <time>2019-04-14T09:47:20Z</time>
      </trkpt>
      <trkpt lat="42.51678" lon="2.22401">
        <ele>922</ele>
        <time>2019-04-14T09:47:36Z</time>
      </trkpt>
      <trkpt lat="42.51671" lon="2.22411">
        <ele>929</ele>
        <time>2019-04-14T09:47:57Z</time>
      </trkpt>
      <trkpt lat="42.51673" lon="2.22423">
        <ele>932</ele>
        <time>2019-04-14T09:48:11Z</time>
      </trkpt>
      <trkpt lat="42.51674" lon="2.22436">
        <ele>927</ele>
        <time>2019-04-14T09:48:20Z</time>
      </trkpt>
      <trkpt lat="42.51665" lon="2.2244">
        <ele>927</ele>
        <time>2019-04-14T09:48:30Z</time>
      </trkpt>
      <trkpt lat="42.5165" lon="2.22451">
        <ele>941</ele>
        <time>2019-04-14T09:49:54Z</time>
      </trkpt>
      <trkpt lat="42.51642" lon="2.22459">
        <ele>938</ele>
        <time>2019-04-14T09:50:11Z</time>
      </trkpt>
      <trkpt lat="42.51641" lon="2.22469">
        <ele>940</ele>
        <time>2019-04-14T09:50:30Z</time>
      </trkpt>
      <trkpt lat="42.51633" lon="2.22475">
        <ele>945</ele>
        <time>2019-04-14T09:51:10Z</time>
      </trkpt>
      <trkpt lat="42.51634" lon="2.22488">
        <ele>940</ele>
        <time>2019-04-14T09:51:28Z</time>
      </trkpt>
      <trkpt lat="42.51625" lon="2.22487">
        <ele>943</ele>
        <time>2019-04-14T09:51:34Z</time>
      </trkpt>
      <trkpt lat="42.51613" lon="2.22485">
        <ele>952</ele>
        <time>2019-04-14T09:51:44Z</time>
      </trkpt>
      <trkpt lat="42.51603" lon="2.22483">
        <ele>959</ele>
        <time>2019-04-14T09:52:09Z</time>
      </trkpt>
      <trkpt lat="42.51595" lon="2.22478">
        <ele>957</ele>
        <time>2019-04-14T09:52:22Z</time>
      </trkpt>
      <trkpt lat="42.51588" lon="2.22469">
        <ele>957</ele>
        <time>2019-04-14T09:52:39Z</time>
      </trkpt>
      <trkpt lat="42.51578" lon="2.22465">
        <ele>959</ele>
        <time>2019-04-14T09:52:50Z</time>
      </trkpt>
      <trkpt lat="42.51571" lon="2.22457">
        <ele>963</ele>
        <time>2019-04-14T09:53:16Z</time>
      </trkpt>
      <trkpt lat="42.51563" lon="2.22451">
        <ele>965</ele>
        <time>2019-04-14T09:53:26Z</time>
      </trkpt>
      <trkpt lat="42.51558" lon="2.22441">
        <ele>962</ele>
        <time>2019-04-14T09:53:35Z</time>
      </trkpt>
      <trkpt lat="42.51548" lon="2.22441">
        <ele>969</ele>
        <time>2019-04-14T09:53:49Z</time>
      </trkpt>
      <trkpt lat="42.51539" lon="2.22444">
        <ele>970</ele>
        <time>2019-04-14T09:54:16Z</time>
      </trkpt>
      <trkpt lat="42.51531" lon="2.22449">
        <ele>964</ele>
        <time>2019-04-14T09:54:25Z</time>
      </trkpt>
      <trkpt lat="42.51521" lon="2.22452">
        <ele>970</ele>
        <time>2019-04-14T09:54:34Z</time>
      </trkpt>
      <trkpt lat="42.5151" lon="2.22454">
        <ele>964</ele>
        <time>2019-04-14T09:54:44Z</time>
      </trkpt>
      <trkpt lat="42.515" lon="2.22463">
        <ele>963</ele>
        <time>2019-04-14T09:55:09Z</time>
      </trkpt>
      <trkpt lat="42.51491" lon="2.22462">
        <ele>968</ele>
        <time>2019-04-14T09:55:18Z</time>
      </trkpt>
      <trkpt lat="42.51482" lon="2.22463">
        <ele>967</ele>
        <time>2019-04-14T09:55:25Z</time>
      </trkpt>
      <trkpt lat="42.51482" lon="2.22477">
        <ele>961</ele>
        <time>2019-04-14T09:55:36Z</time>
      </trkpt>
      <trkpt lat="42.51472" lon="2.22479">
        <ele>970</ele>
        <time>2019-04-14T09:55:42Z</time>
      </trkpt>
      <trkpt lat="42.51468" lon="2.2249">
        <ele>963</ele>
        <time>2019-04-14T09:55:59Z</time>
      </trkpt>
      <trkpt lat="42.51458" lon="2.22489">
        <ele>967</ele>
        <time>2019-04-14T09:56:11Z</time>
      </trkpt>
      <trkpt lat="42.5145" lon="2.22481">
        <ele>967</ele>
        <time>2019-04-14T09:56:33Z</time>
      </trkpt>
      <trkpt lat="42.5144" lon="2.22479">
        <ele>975</ele>
        <time>2019-04-14T09:56:39Z</time>
      </trkpt>
      <trkpt lat="42.51432" lon="2.22475">
        <ele>975</ele>
        <time>2019-04-14T09:56:50Z</time>
      </trkpt>
      <trkpt lat="42.51415" lon="2.22473">
        <ele>976</ele>
        <time>2019-04-14T09:57:06Z</time>
      </trkpt>
      <trkpt lat="42.51407" lon="2.22467">
        <ele>972</ele>
        <time>2019-04-14T09:57:15Z</time>
      </trkpt>
      <trkpt lat="42.51399" lon="2.22461">
        <ele>967</ele>
        <time>2019-04-14T09:57:25Z</time>
      </trkpt>
      <trkpt lat="42.51389" lon="2.22461">
        <ele>964</ele>
        <time>2019-04-14T09:57:36Z</time>
      </trkpt>
      <trkpt lat="42.5138" lon="2.22461">
        <ele>966</ele>
        <time>2019-04-14T09:57:51Z</time>
      </trkpt>
      <trkpt lat="42.5137" lon="2.22463">
        <ele>963</ele>
        <time>2019-04-14T09:57:58Z</time>
      </trkpt>
      <trkpt lat="42.5136" lon="2.22461">
        <ele>963</ele>
        <time>2019-04-14T09:58:29Z</time>
      </trkpt>
      <trkpt lat="42.51351" lon="2.22465">
        <ele>969</ele>
        <time>2019-04-14T09:58:47Z</time>
      </trkpt>
      <trkpt lat="42.51344" lon="2.22475">
        <ele>964</ele>
        <time>2019-04-14T09:59:03Z</time>
      </trkpt>
      <trkpt lat="42.51336" lon="2.22481">
        <ele>959</ele>
        <time>2019-04-14T09:59:18Z</time>
      </trkpt>
      <trkpt lat="42.51328" lon="2.22488">
        <ele>962</ele>
        <time>2019-04-14T09:59:25Z</time>
      </trkpt>
      <trkpt lat="42.51324" lon="2.2249">
        <ele>960</ele>
        <time>2019-04-14T09:59:57Z</time>
      </trkpt>
      <trkpt lat="42.51333" lon="2.22493">
        <ele>962</ele>
        <time>2019-04-14T10:00:17Z</time>
      </trkpt>
      <trkpt lat="42.51323" lon="2.22501">
        <ele>963</ele>
        <time>2019-04-14T10:00:32Z</time>
      </trkpt>
      <trkpt lat="42.51341" lon="2.22499">
        <ele>959</ele>
        <time>2019-04-14T10:00:50Z</time>
      </trkpt>
      <trkpt lat="42.51348" lon="2.22473">
        <ele>958</ele>
        <time>2019-04-14T10:00:56Z</time>
      </trkpt>
      <trkpt lat="42.51321" lon="2.22485">
        <ele>955</ele>
        <time>2019-04-14T10:01:06Z</time>
      </trkpt>
      <trkpt lat="42.51311" lon="2.22479">
        <ele>961</ele>
        <time>2019-04-14T10:01:13Z</time>
      </trkpt>
      <trkpt lat="42.51301" lon="2.22477">
        <ele>980</ele>
        <time>2019-04-14T10:01:30Z</time>
      </trkpt>
      <trkpt lat="42.51296" lon="2.22488">
        <ele>985</ele>
        <time>2019-04-14T10:01:49Z</time>
      </trkpt>
      <trkpt lat="42.51294" lon="2.22501">
        <ele>977</ele>
        <time>2019-04-14T10:02:02Z</time>
      </trkpt>
      <trkpt lat="42.51292" lon="2.22513">
        <ele>979</ele>
        <time>2019-04-14T10:02:19Z</time>
      </trkpt>
      <trkpt lat="42.51283" lon="2.22515">
        <ele>983</ele>
        <time>2019-04-14T10:02:42Z</time>
      </trkpt>
      <trkpt lat="42.51274" lon="2.22519">
        <ele>983</ele>
        <time>2019-04-14T10:02:53Z</time>
      </trkpt>
      <trkpt lat="42.51277" lon="2.22531">
        <ele>976</ele>
        <time>2019-04-14T10:03:04Z</time>
      </trkpt>
      <trkpt lat="42.51249" lon="2.22545">
        <ele>974</ele>
        <time>2019-04-14T10:03:19Z</time>
      </trkpt>
      <trkpt lat="42.51268" lon="2.22557">
        <ele>978</ele>
        <time>2019-04-14T10:03:24Z</time>
      </trkpt>
      <trkpt lat="42.51276" lon="2.22562">
        <ele>982</ele>
        <time>2019-04-14T10:03:31Z</time>
      </trkpt>
      <trkpt lat="42.51294" lon="2.22576">
        <ele>981</ele>
        <time>2019-04-14T10:03:39Z</time>
      </trkpt>
      <trkpt lat="42.51284" lon="2.22581">
        <ele>990</ele>
        <time>2019-04-14T10:03:46Z</time>
      </trkpt>
      <trkpt lat="42.5129" lon="2.22594">
        <ele>984</ele>
        <time>2019-04-14T10:04:06Z</time>
      </trkpt>
      <trkpt lat="42.51282" lon="2.22615">
        <ele>1009</ele>
        <time>2019-04-14T10:04:23Z</time>
      </trkpt>
      <trkpt lat="42.51273" lon="2.22619">
        <ele>1007</ele>
        <time>2019-04-14T10:04:50Z</time>
      </trkpt>
      <trkpt lat="42.51265" lon="2.22614">
        <ele>992</ele>
        <time>2019-04-14T10:04:55Z</time>
      </trkpt>
      <trkpt lat="42.51253" lon="2.22624">
        <ele>1008</ele>
        <time>2019-04-14T10:05:11Z</time>
      </trkpt>
      <trkpt lat="42.51248" lon="2.22624">
        <ele>1007</ele>
        <time>2019-04-14T10:05:36Z</time>
      </trkpt>
      <trkpt lat="42.51246" lon="2.22636">
        <ele>1006</ele>
        <time>2019-04-14T10:05:48Z</time>
      </trkpt>
      <trkpt lat="42.51237" lon="2.22638">
        <ele>1009</ele>
        <time>2019-04-14T10:06:04Z</time>
      </trkpt>
      <trkpt lat="42.51228" lon="2.22642">
        <ele>994</ele>
        <time>2019-04-14T10:06:24Z</time>
      </trkpt>
      <trkpt lat="42.51219" lon="2.22643">
        <ele>1002</ele>
        <time>2019-04-14T10:06:42Z</time>
      </trkpt>
      <trkpt lat="42.51209" lon="2.2264">
        <ele>1004</ele>
        <time>2019-04-14T10:06:56Z</time>
      </trkpt>
      <trkpt lat="42.51201" lon="2.22634">
        <ele>1014</ele>
        <time>2019-04-14T10:07:03Z</time>
      </trkpt>
      <trkpt lat="42.51192" lon="2.2263">
        <ele>1020</ele>
        <time>2019-04-14T10:07:32Z</time>
      </trkpt>
      <trkpt lat="42.51185" lon="2.22637">
        <ele>1017</ele>
        <time>2019-04-14T10:08:05Z</time>
      </trkpt>
      <trkpt lat="42.51176" lon="2.22632">
        <ele>1023</ele>
        <time>2019-04-14T10:08:12Z</time>
      </trkpt>
      <trkpt lat="42.51167" lon="2.22632">
        <ele>1025</ele>
        <time>2019-04-14T10:08:36Z</time>
      </trkpt>
      <trkpt lat="42.51158" lon="2.22635">
        <ele>1028</ele>
        <time>2019-04-14T10:08:53Z</time>
      </trkpt>
      <trkpt lat="42.51148" lon="2.22635">
        <ele>1027</ele>
        <time>2019-04-14T10:09:02Z</time>
      </trkpt>
      <trkpt lat="42.51143" lon="2.22645">
        <ele>1029</ele>
        <time>2019-04-14T10:09:35Z</time>
      </trkpt>
      <trkpt lat="42.51135" lon="2.22639">
        <ele>1031</ele>
        <time>2019-04-14T10:09:45Z</time>
      </trkpt>
      <trkpt lat="42.51128" lon="2.2263">
        <ele>1042</ele>
        <time>2019-04-14T10:09:58Z</time>
      </trkpt>
      <trkpt lat="42.51119" lon="2.22626">
        <ele>1044</ele>
        <time>2019-04-14T10:10:16Z</time>
      </trkpt>
      <trkpt lat="42.51111" lon="2.22621">
        <ele>1044</ele>
        <time>2019-04-14T10:10:40Z</time>
      </trkpt>
      <trkpt lat="42.51104" lon="2.22612">
        <ele>1050</ele>
        <time>2019-04-14T10:10:56Z</time>
      </trkpt>
      <trkpt lat="42.51096" lon="2.22606">
        <ele>1040</ele>
        <time>2019-04-14T10:11:17Z</time>
      </trkpt>
      <trkpt lat="42.51094" lon="2.22594">
        <ele>1049</ele>
        <time>2019-04-14T10:11:29Z</time>
      </trkpt>
      <trkpt lat="42.51088" lon="2.22585">
        <ele>1054</ele>
        <time>2019-04-14T10:11:48Z</time>
      </trkpt>
      <trkpt lat="42.51086" lon="2.22573">
        <ele>1054</ele>
        <time>2019-04-14T10:11:59Z</time>
      </trkpt>
      <trkpt lat="42.51089" lon="2.22561">
        <ele>1051</ele>
        <time>2019-04-14T10:12:09Z</time>
      </trkpt>
      <trkpt lat="42.51082" lon="2.22568">
        <ele>1053</ele>
        <time>2019-04-14T10:12:33Z</time>
      </trkpt>
      <trkpt lat="42.51078" lon="2.22579">
        <ele>1054</ele>
        <time>2019-04-14T10:12:58Z</time>
      </trkpt>
      <trkpt lat="42.51076" lon="2.22592">
        <ele>1065</ele>
        <time>2019-04-14T10:13:27Z</time>
      </trkpt>
      <trkpt lat="42.51071" lon="2.22581">
        <ele>1075</ele>
        <time>2019-04-14T10:13:53Z</time>
      </trkpt>
      <trkpt lat="42.51062" lon="2.22576">
        <ele>1079</ele>
        <time>2019-04-14T10:14:28Z</time>
      </trkpt>
      <trkpt lat="42.51053" lon="2.22575">
        <ele>1078</ele>
        <time>2019-04-14T10:14:40Z</time>
      </trkpt>
      <trkpt lat="42.51047" lon="2.22584">
        <ele>1083</ele>
        <time>2019-04-14T10:15:06Z</time>
      </trkpt>
      <trkpt lat="42.51037" lon="2.22589">
        <ele>1087</ele>
        <time>2019-04-14T10:15:20Z</time>
      </trkpt>
      <trkpt lat="42.51026" lon="2.22607">
        <ele>1087</ele>
        <time>2019-04-14T10:15:29Z</time>
      </trkpt>
      <trkpt lat="42.51015" lon="2.22612">
        <ele>1090</ele>
        <time>2019-04-14T10:15:40Z</time>
      </trkpt>
      <trkpt lat="42.51005" lon="2.22614">
        <ele>1092</ele>
        <time>2019-04-14T10:15:59Z</time>
      </trkpt>
      <trkpt lat="42.51001" lon="2.22625">
        <ele>1093</ele>
        <time>2019-04-14T10:16:12Z</time>
      </trkpt>
      <trkpt lat="42.50994" lon="2.22633">
        <ele>1092</ele>
        <time>2019-04-14T10:16:32Z</time>
      </trkpt>
      <trkpt lat="42.50984" lon="2.22634">
        <ele>1092</ele>
        <time>2019-04-14T10:16:38Z</time>
      </trkpt>
      <trkpt lat="42.50982" lon="2.22646">
        <ele>1094</ele>
        <time>2019-04-14T10:16:55Z</time>
      </trkpt>
      <trkpt lat="42.50975" lon="2.22655">
        <ele>1093</ele>
        <time>2019-04-14T10:17:08Z</time>
      </trkpt>
      <trkpt lat="42.50967" lon="2.22661">
        <ele>1098</ele>
        <time>2019-04-14T10:17:49Z</time>
      </trkpt>
      <trkpt lat="42.50959" lon="2.22667">
        <ele>1098</ele>
        <time>2019-04-14T10:18:06Z</time>
      </trkpt>
      <trkpt lat="42.50953" lon="2.22676">
        <ele>1099</ele>
        <time>2019-04-14T10:18:22Z</time>
      </trkpt>
      <trkpt lat="42.50955" lon="2.22689">
        <ele>1099</ele>
        <time>2019-04-14T10:18:36Z</time>
      </trkpt>
      <trkpt lat="42.5095" lon="2.22701">
        <ele>1099</ele>
        <time>2019-04-14T10:19:03Z</time>
      </trkpt>
      <trkpt lat="42.5095" lon="2.22713">
        <ele>1096</ele>
        <time>2019-04-14T10:19:20Z</time>
      </trkpt>
      <trkpt lat="42.50948" lon="2.22725">
        <ele>1094</ele>
        <time>2019-04-14T10:19:35Z</time>
      </trkpt>
      <trkpt lat="42.50942" lon="2.22735">
        <ele>1093</ele>
        <time>2019-04-14T10:19:43Z</time>
      </trkpt>
      <trkpt lat="42.50938" lon="2.22747">
        <ele>1092</ele>
        <time>2019-04-14T10:19:50Z</time>
      </trkpt>
      <trkpt lat="42.50933" lon="2.22757">
        <ele>1091</ele>
        <time>2019-04-14T10:19:58Z</time>
      </trkpt>
      <trkpt lat="42.50929" lon="2.22781">
        <ele>1088</ele>
        <time>2019-04-14T10:20:23Z</time>
      </trkpt>
      <trkpt lat="42.50921" lon="2.22786">
        <ele>1083</ele>
        <time>2019-04-14T10:21:09Z</time>
      </trkpt>
      <trkpt lat="42.5093" lon="2.22791">
        <ele>1082</ele>
        <time>2019-04-14T10:21:25Z</time>
      </trkpt>
      <trkpt lat="42.50923" lon="2.22799">
        <ele>1081</ele>
        <time>2019-04-14T10:21:34Z</time>
      </trkpt>
      <trkpt lat="42.50919" lon="2.22812">
        <ele>1079</ele>
        <time>2019-04-14T10:21:40Z</time>
      </trkpt>
      <trkpt lat="42.50921" lon="2.22828">
        <ele>1075</ele>
        <time>2019-04-14T10:21:53Z</time>
      </trkpt>
      <trkpt lat="42.50923" lon="2.22842">
        <ele>1078</ele>
        <time>2019-04-14T10:22:08Z</time>
      </trkpt>
      <trkpt lat="42.50929" lon="2.22853">
        <ele>1073</ele>
        <time>2019-04-14T10:22:34Z</time>
      </trkpt>
      <trkpt lat="42.50919" lon="2.22867">
        <ele>1070</ele>
        <time>2019-04-14T10:22:59Z</time>
      </trkpt>
      <trkpt lat="42.50919" lon="2.22892">
        <ele>1069</ele>
        <time>2019-04-14T10:23:10Z</time>
      </trkpt>
      <trkpt lat="42.5092" lon="2.22904">
        <ele>1070</ele>
        <time>2019-04-14T10:23:17Z</time>
      </trkpt>
      <trkpt lat="42.50922" lon="2.22917">
        <ele>1070</ele>
        <time>2019-04-14T10:23:29Z</time>
      </trkpt>
      <trkpt lat="42.50921" lon="2.22932">
        <ele>1069</ele>
        <time>2019-04-14T10:23:38Z</time>
      </trkpt>
      <trkpt lat="42.50911" lon="2.22932">
        <ele>1067</ele>
        <time>2019-04-14T10:23:45Z</time>
      </trkpt>
      <trkpt lat="42.50905" lon="2.22945">
        <ele>1064</ele>
        <time>2019-04-14T10:24:08Z</time>
      </trkpt>
      <trkpt lat="42.50896" lon="2.22948">
        <ele>1062</ele>
        <time>2019-04-14T10:24:23Z</time>
      </trkpt>
      <trkpt lat="42.5089" lon="2.22958">
        <ele>1060</ele>
        <time>2019-04-14T10:24:45Z</time>
      </trkpt>
      <trkpt lat="42.50883" lon="2.22964">
        <ele>1059</ele>
        <time>2019-04-14T10:24:54Z</time>
      </trkpt>
      <trkpt lat="42.50875" lon="2.2297">
        <ele>1057</ele>
        <time>2019-04-14T10:25:12Z</time>
      </trkpt>
      <trkpt lat="42.50877" lon="2.22982">
        <ele>1056</ele>
        <time>2019-04-14T10:25:18Z</time>
      </trkpt>
      <trkpt lat="42.50867" lon="2.22983">
        <ele>1057</ele>
        <time>2019-04-14T10:25:25Z</time>
      </trkpt>
      <trkpt lat="42.50858" lon="2.22988">
        <ele>1054</ele>
        <time>2019-04-14T10:25:39Z</time>
      </trkpt>
      <trkpt lat="42.50854" lon="2.22998">
        <ele>1054</ele>
        <time>2019-04-14T10:25:53Z</time>
      </trkpt>
      <trkpt lat="42.50844" lon="2.23001">
        <ele>1052</ele>
        <time>2019-04-14T10:26:06Z</time>
      </trkpt>
      <trkpt lat="42.50835" lon="2.23004">
        <ele>1052</ele>
        <time>2019-04-14T10:26:13Z</time>
      </trkpt>
      <trkpt lat="42.50826" lon="2.22998">
        <ele>1051</ele>
        <time>2019-04-14T10:26:19Z</time>
      </trkpt>
      <trkpt lat="42.50829" lon="2.2301">
        <ele>1048</ele>
        <time>2019-04-14T10:26:37Z</time>
      </trkpt>
      <trkpt lat="42.50826" lon="2.23022">
        <ele>1047</ele>
        <time>2019-04-14T10:27:00Z</time>
      </trkpt>
      <trkpt lat="42.50825" lon="2.23035">
        <ele>1046</ele>
        <time>2019-04-14T10:27:08Z</time>
      </trkpt>
      <trkpt lat="42.50817" lon="2.23026">
        <ele>1045</ele>
        <time>2019-04-14T10:27:16Z</time>
      </trkpt>
      <trkpt lat="42.50811" lon="2.23016">
        <ele>1043</ele>
        <time>2019-04-14T10:27:21Z</time>
      </trkpt>
      <trkpt lat="42.50803" lon="2.23027">
        <ele>1042</ele>
        <time>2019-04-14T10:27:43Z</time>
      </trkpt>
      <trkpt lat="42.50812" lon="2.23024">
        <ele>1040</ele>
        <time>2019-04-14T10:28:13Z</time>
      </trkpt>
      <trkpt lat="42.50823" lon="2.2301">
        <ele>1041</ele>
        <time>2019-04-14T10:28:19Z</time>
      </trkpt>
      <trkpt lat="42.50813" lon="2.23019">
        <ele>1041</ele>
        <time>2019-04-14T10:28:25Z</time>
      </trkpt>
      <trkpt lat="42.50807" lon="2.23028">
        <ele>1038</ele>
        <time>2019-04-14T10:29:11Z</time>
      </trkpt>
      <trkpt lat="42.50818" lon="2.2302">
        <ele>1039</ele>
        <time>2019-04-14T10:29:23Z</time>
      </trkpt>
      <trkpt lat="42.50806" lon="2.23019">
        <ele>1036</ele>
        <time>2019-04-14T10:29:33Z</time>
      </trkpt>
      <trkpt lat="42.50789" lon="2.23016">
        <ele>1036</ele>
        <time>2019-04-14T10:29:39Z</time>
      </trkpt>
      <trkpt lat="42.50801" lon="2.23017">
        <ele>1034</ele>
        <time>2019-04-14T10:29:51Z</time>
      </trkpt>
      <trkpt lat="42.5081" lon="2.23008">
        <ele>1033</ele>
        <time>2019-04-14T10:29:57Z</time>
      </trkpt>
      <trkpt lat="42.50803" lon="2.23016">
        <ele>1034</ele>
        <time>2019-04-14T10:30:10Z</time>
      </trkpt>
      <trkpt lat="42.50798" lon="2.23028">
        <ele>1034</ele>
        <time>2019-04-14T10:30:23Z</time>
      </trkpt>
      <trkpt lat="42.50786" lon="2.23045">
        <ele>1034</ele>
        <time>2019-04-14T10:30:37Z</time>
      </trkpt>
      <trkpt lat="42.50778" lon="2.23052">
        <ele>1033</ele>
        <time>2019-04-14T10:30:42Z</time>
      </trkpt>
      <trkpt lat="42.50766" lon="2.23063">
        <ele>1031</ele>
        <time>2019-04-14T10:31:10Z</time>
      </trkpt>
      <trkpt lat="42.50762" lon="2.23079">
        <ele>1033</ele>
        <time>2019-04-14T10:31:19Z</time>
      </trkpt>
      <trkpt lat="42.50756" lon="2.23093">
        <ele>1032</ele>
        <time>2019-04-14T10:31:37Z</time>
      </trkpt>
      <trkpt lat="42.50748" lon="2.23097">
        <ele>1031</ele>
        <time>2019-04-14T10:31:55Z</time>
      </trkpt>
      <trkpt lat="42.50742" lon="2.23086">
        <ele>1028</ele>
        <time>2019-04-14T10:32:19Z</time>
      </trkpt>
      <trkpt lat="42.50738" lon="2.23097">
        <ele>1028</ele>
        <time>2019-04-14T10:32:41Z</time>
      </trkpt>
      <trkpt lat="42.50729" lon="2.23101">
        <ele>1026</ele>
        <time>2019-04-14T10:32:49Z</time>
      </trkpt>
      <trkpt lat="42.50724" lon="2.23113">
        <ele>1025</ele>
        <time>2019-04-14T10:32:55Z</time>
      </trkpt>
      <trkpt lat="42.50714" lon="2.23137">
        <ele>1024</ele>
        <time>2019-04-14T10:33:01Z</time>
      </trkpt>
      <trkpt lat="42.50704" lon="2.23168">
        <ele>1023</ele>
        <time>2019-04-14T10:33:06Z</time>
      </trkpt>
      <trkpt lat="42.50708" lon="2.23134">
        <ele>1032</ele>
        <time>2019-04-14T10:33:12Z</time>
      </trkpt>
      <trkpt lat="42.50705" lon="2.23122">
        <ele>1027</ele>
        <time>2019-04-14T10:33:18Z</time>
      </trkpt>
      <trkpt lat="42.50695" lon="2.23121">
        <ele>1030</ele>
        <time>2019-04-14T10:33:35Z</time>
      </trkpt>
      <trkpt lat="42.50685" lon="2.23146">
        <ele>1026</ele>
        <time>2019-04-14T10:33:42Z</time>
      </trkpt>
      <trkpt lat="42.50686" lon="2.23145">
        <ele>1031</ele>
        <time>2019-04-14T10:34:00Z</time>
      </trkpt>
      <trkpt lat="42.50693" lon="2.23132">
        <ele>1030</ele>
        <time>2019-04-14T10:34:06Z</time>
      </trkpt>
      <trkpt lat="42.50692" lon="2.23118">
        <ele>1031</ele>
        <time>2019-04-14T10:34:23Z</time>
      </trkpt>
      <trkpt lat="42.50677" lon="2.23138">
        <ele>1035</ele>
        <time>2019-04-14T10:34:30Z</time>
      </trkpt>
      <trkpt lat="42.50667" lon="2.23143">
        <ele>1038</ele>
        <time>2019-04-14T10:34:37Z</time>
      </trkpt>
      <trkpt lat="42.50663" lon="2.23155">
        <ele>1032</ele>
        <time>2019-04-14T10:34:43Z</time>
      </trkpt>
      <trkpt lat="42.50662" lon="2.23118">
        <ele>1033</ele>
        <time>2019-04-14T10:34:52Z</time>
      </trkpt>
      <trkpt lat="42.50656" lon="2.23128">
        <ele>1033</ele>
        <time>2019-04-14T10:35:01Z</time>
      </trkpt>
      <trkpt lat="42.50645" lon="2.23141">
        <ele>1037</ele>
        <time>2019-04-14T10:35:17Z</time>
      </trkpt>
      <trkpt lat="42.50636" lon="2.23141">
        <ele>1039</ele>
        <time>2019-04-14T10:35:34Z</time>
      </trkpt>
      <trkpt lat="42.50633" lon="2.23165">
        <ele>1047</ele>
        <time>2019-04-14T10:35:44Z</time>
      </trkpt>
      <trkpt lat="42.50635" lon="2.23152">
        <ele>1044</ele>
        <time>2019-04-14T10:35:50Z</time>
      </trkpt>
      <trkpt lat="42.50634" lon="2.23133">
        <ele>1040</ele>
        <time>2019-04-14T10:36:09Z</time>
      </trkpt>
      <trkpt lat="42.50565" lon="2.23132">
        <ele>1071</ele>
        <time>2019-04-14T10:38:44Z</time>
      </trkpt>
      <trkpt lat="42.50556" lon="2.23122">
        <ele>1071</ele>
        <time>2019-04-14T10:38:54Z</time>
      </trkpt>
      <trkpt lat="42.50549" lon="2.23114">
        <ele>1065</ele>
        <time>2019-04-14T10:39:00Z</time>
      </trkpt>
      <trkpt lat="42.50544" lon="2.23101">
        <ele>1065</ele>
        <time>2019-04-14T10:39:07Z</time>
      </trkpt>
      <trkpt lat="42.50554" lon="2.23103">
        <ele>1069</ele>
        <time>2019-04-14T10:39:15Z</time>
      </trkpt>
      <trkpt lat="42.50467" lon="2.23209">
        <ele>1125</ele>
        <time>2019-04-14T10:40:11Z</time>
      </trkpt>
      <trkpt lat="42.50481" lon="2.23156">
        <ele>1159</ele>
        <time>2019-04-14T10:40:28Z</time>
      </trkpt>
      <trkpt lat="42.50548" lon="2.23121">
        <ele>1070.9</ele>
        <time>2019-04-14T10:44:15Z</time>
      </trkpt>
      <trkpt lat="42.50541" lon="2.231">
        <ele>1067</ele>
        <time>2019-04-14T10:44:43Z</time>
      </trkpt>
      <trkpt lat="42.50537" lon="2.23088">
        <ele>1074</ele>
        <time>2019-04-14T10:44:56Z</time>
      </trkpt>
      <trkpt lat="42.50543" lon="2.23068">
        <ele>1074</ele>
        <time>2019-04-14T10:46:03Z</time>
      </trkpt>
      <trkpt lat="42.50542" lon="2.23056">
        <ele>1079</ele>
        <time>2019-04-14T10:46:13Z</time>
      </trkpt>
      <trkpt lat="42.50544" lon="2.23044">
        <ele>1080</ele>
        <time>2019-04-14T10:46:25Z</time>
      </trkpt>
      <trkpt lat="42.5055" lon="2.23034">
        <ele>1077</ele>
        <time>2019-04-14T10:46:33Z</time>
      </trkpt>
      <trkpt lat="42.50555" lon="2.23023">
        <ele>1080</ele>
        <time>2019-04-14T10:46:50Z</time>
      </trkpt>
      <trkpt lat="42.50544" lon="2.23022">
        <ele>1075</ele>
        <time>2019-04-14T10:47:02Z</time>
      </trkpt>
      <trkpt lat="42.50546" lon="2.2301">
        <ele>1080</ele>
        <time>2019-04-14T10:47:33Z</time>
      </trkpt>
      <trkpt lat="42.50562" lon="2.23001">
        <ele>1079</ele>
        <time>2019-04-14T10:47:40Z</time>
      </trkpt>
      <trkpt lat="42.50553" lon="2.23005">
        <ele>1093</ele>
        <time>2019-04-14T10:47:51Z</time>
      </trkpt>
      <trkpt lat="42.50543" lon="2.23001">
        <ele>1088</ele>
        <time>2019-04-14T10:48:01Z</time>
      </trkpt>
      <trkpt lat="42.5055" lon="2.23001">
        <ele>1083</ele>
        <time>2019-04-14T10:48:16Z</time>
      </trkpt>
      <trkpt lat="42.50549" lon="2.23014">
        <ele>1083</ele>
        <time>2019-04-14T10:48:22Z</time>
      </trkpt>
      <trkpt lat="42.50553" lon="2.23018">
        <ele>1086</ele>
        <time>2019-04-14T10:48:40Z</time>
      </trkpt>
      <trkpt lat="42.50559" lon="2.23008">
        <ele>1089</ele>
        <time>2019-04-14T10:48:52Z</time>
      </trkpt>
      <trkpt lat="42.50534" lon="2.22993">
        <ele>1092</ele>
        <time>2019-04-14T10:48:59Z</time>
      </trkpt>
      <trkpt lat="42.50517" lon="2.23009">
        <ele>1088</ele>
        <time>2019-04-14T10:49:07Z</time>
      </trkpt>
      <trkpt lat="42.50509" lon="2.23014">
        <ele>1084</ele>
        <time>2019-04-14T10:49:19Z</time>
      </trkpt>
      <trkpt lat="42.50532" lon="2.22998">
        <ele>1085</ele>
        <time>2019-04-14T10:49:25Z</time>
      </trkpt>
      <trkpt lat="42.50517" lon="2.22994">
        <ele>1087</ele>
        <time>2019-04-14T10:49:46Z</time>
      </trkpt>
      <trkpt lat="42.50512" lon="2.22984">
        <ele>1094</ele>
        <time>2019-04-14T10:50:01Z</time>
      </trkpt>
      <trkpt lat="42.50511" lon="2.22997">
        <ele>1082</ele>
        <time>2019-04-14T10:50:34Z</time>
      </trkpt>
      <trkpt lat="42.50508" lon="2.23011">
        <ele>1082</ele>
        <time>2019-04-14T10:50:43Z</time>
      </trkpt>
      <trkpt lat="42.50505" lon="2.22998">
        <ele>1082</ele>
        <time>2019-04-14T10:50:59Z</time>
      </trkpt>
      <trkpt lat="42.50496" lon="2.23006">
        <ele>1082</ele>
        <time>2019-04-14T10:51:04Z</time>
      </trkpt>
      <trkpt lat="42.5049" lon="2.22998">
        <ele>1082</ele>
        <time>2019-04-14T10:51:12Z</time>
      </trkpt>
      <trkpt lat="42.50481" lon="2.23">
        <ele>1082</ele>
        <time>2019-04-14T10:51:20Z</time>
      </trkpt>
      <trkpt lat="42.50474" lon="2.22991">
        <ele>1082</ele>
        <time>2019-04-14T10:51:31Z</time>
      </trkpt>
      <trkpt lat="42.50484" lon="2.22988">
        <ele>1084</ele>
        <time>2019-04-14T10:51:39Z</time>
      </trkpt>
      <trkpt lat="42.5049" lon="2.22997">
        <ele>1084</ele>
        <time>2019-04-14T10:51:53Z</time>
      </trkpt>
      <trkpt lat="42.50494" lon="2.23014">
        <ele>1086</ele>
        <time>2019-04-14T10:52:11Z</time>
      </trkpt>
      <trkpt lat="42.50488" lon="2.23025">
        <ele>1085</ele>
        <time>2019-04-14T10:52:22Z</time>
      </trkpt>
      <trkpt lat="42.50482" lon="2.23035">
        <ele>1085</ele>
        <time>2019-04-14T10:52:27Z</time>
      </trkpt>
      <trkpt lat="42.50482" lon="2.23048">
        <ele>1087</ele>
        <time>2019-04-14T10:52:45Z</time>
      </trkpt>
      <trkpt lat="42.50474" lon="2.23056">
        <ele>1087</ele>
        <time>2019-04-14T10:53:01Z</time>
      </trkpt>
      <trkpt lat="42.50464" lon="2.23063">
        <ele>1088</ele>
        <time>2019-04-14T10:53:14Z</time>
      </trkpt>
      <trkpt lat="42.50455" lon="2.23057">
        <ele>1088</ele>
        <time>2019-04-14T10:53:22Z</time>
      </trkpt>
      <trkpt lat="42.50453" lon="2.23045">
        <ele>1089</ele>
        <time>2019-04-14T10:53:31Z</time>
      </trkpt>
      <trkpt lat="42.5044" lon="2.23042">
        <ele>1090</ele>
        <time>2019-04-14T10:53:54Z</time>
      </trkpt>
      <trkpt lat="42.50443" lon="2.23028">
        <ele>1091</ele>
        <time>2019-04-14T10:54:06Z</time>
      </trkpt>
      <trkpt lat="42.50462" lon="2.2302">
        <ele>1091</ele>
        <time>2019-04-14T10:54:28Z</time>
      </trkpt>
      <trkpt lat="42.50454" lon="2.23031">
        <ele>1091</ele>
        <time>2019-04-14T10:54:43Z</time>
      </trkpt>
      <trkpt lat="42.50448" lon="2.2302">
        <ele>1092</ele>
        <time>2019-04-14T10:55:09Z</time>
      </trkpt>
      <trkpt lat="42.50439" lon="2.23015">
        <ele>1093</ele>
        <time>2019-04-14T10:55:14Z</time>
      </trkpt>
      <trkpt lat="42.50436" lon="2.23005">
        <ele>1094</ele>
        <time>2019-04-14T10:55:33Z</time>
      </trkpt>
      <trkpt lat="42.50434" lon="2.22991">
        <ele>1094</ele>
        <time>2019-04-14T10:55:44Z</time>
      </trkpt>
      <trkpt lat="42.50425" lon="2.22988">
        <ele>1095</ele>
        <time>2019-04-14T10:56:02Z</time>
      </trkpt>
      <trkpt lat="42.50416" lon="2.22984">
        <ele>1096</ele>
        <time>2019-04-14T10:56:13Z</time>
      </trkpt>
      <trkpt lat="42.50405" lon="2.22985">
        <ele>1095</ele>
        <time>2019-04-14T10:56:46Z</time>
      </trkpt>
      <trkpt lat="42.50398" lon="2.22993">
        <ele>1095</ele>
        <time>2019-04-14T10:56:53Z</time>
      </trkpt>
      <trkpt lat="42.50393" lon="2.23003">
        <ele>1094</ele>
        <time>2019-04-14T10:56:58Z</time>
      </trkpt>
      <trkpt lat="42.50389" lon="2.23015">
        <ele>1094</ele>
        <time>2019-04-14T10:57:09Z</time>
      </trkpt>
      <trkpt lat="42.50382" lon="2.23023">
        <ele>1095</ele>
        <time>2019-04-14T10:57:26Z</time>
      </trkpt>
      <trkpt lat="42.50373" lon="2.23029">
        <ele>1094</ele>
        <time>2019-04-14T10:57:44Z</time>
      </trkpt>
      <trkpt lat="42.50365" lon="2.23034">
        <ele>1096</ele>
        <time>2019-04-14T10:58:00Z</time>
      </trkpt>
      <trkpt lat="42.50356" lon="2.23039">
        <ele>1101</ele>
        <time>2019-04-14T10:58:19Z</time>
      </trkpt>
      <trkpt lat="42.50348" lon="2.23045">
        <ele>1097</ele>
        <time>2019-04-14T10:58:34Z</time>
      </trkpt>
      <trkpt lat="42.5034" lon="2.23051">
        <ele>1098</ele>
        <time>2019-04-14T10:58:48Z</time>
      </trkpt>
      <trkpt lat="42.50329" lon="2.2305">
        <ele>1096</ele>
        <time>2019-04-14T10:58:55Z</time>
      </trkpt>
      <trkpt lat="42.50308" lon="2.23052">
        <ele>1096</ele>
        <time>2019-04-14T10:59:06Z</time>
      </trkpt>
      <trkpt lat="42.50301" lon="2.23053">
        <ele>1096</ele>
        <time>2019-04-14T10:59:45Z</time>
      </trkpt>
      <trkpt lat="42.50293" lon="2.23043">
        <ele>1094</ele>
        <time>2019-04-14T11:00:22Z</time>
      </trkpt>
      <trkpt lat="42.503" lon="2.23048">
        <ele>1097</ele>
        <time>2019-04-14T11:00:32Z</time>
      </trkpt>
      <trkpt lat="42.50299" lon="2.23044">
        <ele>1094</ele>
        <time>2019-04-14T11:01:48Z</time>
      </trkpt>
      <trkpt lat="42.50294" lon="2.23054">
        <ele>1103</ele>
        <time>2019-04-14T11:02:18Z</time>
      </trkpt>
      <trkpt lat="42.50278" lon="2.23046">
        <ele>1103</ele>
        <time>2019-04-14T11:02:45Z</time>
      </trkpt>
      <trkpt lat="42.50267" lon="2.23037">
        <ele>1100</ele>
        <time>2019-04-14T11:02:57Z</time>
      </trkpt>
      <trkpt lat="42.5029" lon="2.23057">
        <ele>1103</ele>
        <time>2019-04-14T11:03:03Z</time>
      </trkpt>
      <trkpt lat="42.50271" lon="2.23061">
        <ele>1104</ele>
        <time>2019-04-14T11:03:12Z</time>
      </trkpt>
      <trkpt lat="42.50267" lon="2.23073">
        <ele>1108</ele>
        <time>2019-04-14T11:03:34Z</time>
      </trkpt>
      <trkpt lat="42.5026" lon="2.23082">
        <ele>1109</ele>
        <time>2019-04-14T11:04:06Z</time>
      </trkpt>
      <trkpt lat="42.5025" lon="2.23085">
        <ele>1107</ele>
        <time>2019-04-14T11:04:17Z</time>
      </trkpt>
      <trkpt lat="42.50241" lon="2.23084">
        <ele>1107</ele>
        <time>2019-04-14T11:04:23Z</time>
      </trkpt>
      <trkpt lat="42.50238" lon="2.23109">
        <ele>1110</ele>
        <time>2019-04-14T11:04:48Z</time>
      </trkpt>
      <trkpt lat="42.50246" lon="2.23118">
        <ele>1109</ele>
        <time>2019-04-14T11:04:58Z</time>
      </trkpt>
      <trkpt lat="42.50241" lon="2.23116">
        <ele>1109</ele>
        <time>2019-04-14T11:05:19Z</time>
      </trkpt>
      <trkpt lat="42.50235" lon="2.23125">
        <ele>1109</ele>
        <time>2019-04-14T11:05:40Z</time>
      </trkpt>
      <trkpt lat="42.50234" lon="2.23137">
        <ele>1113</ele>
        <time>2019-04-14T11:05:52Z</time>
      </trkpt>
      <trkpt lat="42.50229" lon="2.23149">
        <ele>1112</ele>
        <time>2019-04-14T11:06:21Z</time>
      </trkpt>
      <trkpt lat="42.5022" lon="2.2315">
        <ele>1112</ele>
        <time>2019-04-14T11:06:34Z</time>
      </trkpt>
      <trkpt lat="42.5021" lon="2.23153">
        <ele>1113</ele>
        <time>2019-04-14T11:07:09Z</time>
      </trkpt>
      <trkpt lat="42.50203" lon="2.23146">
        <ele>1113</ele>
        <time>2019-04-14T11:07:18Z</time>
      </trkpt>
      <trkpt lat="42.50195" lon="2.23154">
        <ele>1115</ele>
        <time>2019-04-14T11:07:39Z</time>
      </trkpt>
      <trkpt lat="42.50186" lon="2.23153">
        <ele>1115</ele>
        <time>2019-04-14T11:07:53Z</time>
      </trkpt>
      <trkpt lat="42.50176" lon="2.23157">
        <ele>1117</ele>
        <time>2019-04-14T11:08:04Z</time>
      </trkpt>
      <trkpt lat="42.50168" lon="2.23164">
        <ele>1119</ele>
        <time>2019-04-14T11:08:13Z</time>
      </trkpt>
      <trkpt lat="42.50161" lon="2.23172">
        <ele>1121</ele>
        <time>2019-04-14T11:08:22Z</time>
      </trkpt>
      <trkpt lat="42.50156" lon="2.23183">
        <ele>1122</ele>
        <time>2019-04-14T11:08:33Z</time>
      </trkpt>
      <trkpt lat="42.50154" lon="2.23196">
        <ele>1123</ele>
        <time>2019-04-14T11:08:42Z</time>
      </trkpt>
      <trkpt lat="42.50151" lon="2.23209">
        <ele>1124</ele>
        <time>2019-04-14T11:08:51Z</time>
      </trkpt>
      <trkpt lat="42.50146" lon="2.2322">
        <ele>1125</ele>
        <time>2019-04-14T11:09:00Z</time>
      </trkpt>
      <trkpt lat="42.50138" lon="2.23226">
        <ele>1124</ele>
        <time>2019-04-14T11:09:38Z</time>
      </trkpt>
      <trkpt lat="42.5013" lon="2.23233">
        <ele>1123</ele>
        <time>2019-04-14T11:09:50Z</time>
      </trkpt>
      <trkpt lat="42.50124" lon="2.23243">
        <ele>1125</ele>
        <time>2019-04-14T11:10:00Z</time>
      </trkpt>
      <trkpt lat="42.50116" lon="2.2325">
        <ele>1126</ele>
        <time>2019-04-14T11:10:09Z</time>
      </trkpt>
      <trkpt lat="42.50109" lon="2.2326">
        <ele>1127</ele>
        <time>2019-04-14T11:10:18Z</time>
      </trkpt>
      <trkpt lat="42.50101" lon="2.23268">
        <ele>1127</ele>
        <time>2019-04-14T11:10:25Z</time>
      </trkpt>
      <trkpt lat="42.50091" lon="2.23269">
        <ele>1129</ele>
        <time>2019-04-14T11:10:45Z</time>
      </trkpt>
      <trkpt lat="42.50082" lon="2.23271">
        <ele>1130</ele>
        <time>2019-04-14T11:10:59Z</time>
      </trkpt>
      <trkpt lat="42.50072" lon="2.23271">
        <ele>1132</ele>
        <time>2019-04-14T11:11:07Z</time>
      </trkpt>
      <trkpt lat="42.50057" lon="2.23272">
        <ele>1131</ele>
        <time>2019-04-14T11:11:17Z</time>
      </trkpt>
      <trkpt lat="42.50052" lon="2.23282">
        <ele>1134</ele>
        <time>2019-04-14T11:11:29Z</time>
      </trkpt>
      <trkpt lat="42.50049" lon="2.23293">
        <ele>1134</ele>
        <time>2019-04-14T11:11:35Z</time>
      </trkpt>
      <trkpt lat="42.50052" lon="2.23305">
        <ele>1135</ele>
        <time>2019-04-14T11:11:47Z</time>
      </trkpt>
      <trkpt lat="42.50055" lon="2.23317">
        <ele>1135</ele>
        <time>2019-04-14T11:11:56Z</time>
      </trkpt>
      <trkpt lat="42.50059" lon="2.2333">
        <ele>1136</ele>
        <time>2019-04-14T11:12:03Z</time>
      </trkpt>
      <trkpt lat="42.50061" lon="2.23342">
        <ele>1137</ele>
        <time>2019-04-14T11:12:11Z</time>
      </trkpt>
      <trkpt lat="42.50057" lon="2.23355">
        <ele>1136</ele>
        <time>2019-04-14T11:12:17Z</time>
      </trkpt>
      <trkpt lat="42.50053" lon="2.23366">
        <ele>1137</ele>
        <time>2019-04-14T11:12:23Z</time>
      </trkpt>
      <trkpt lat="42.50051" lon="2.23378">
        <ele>1138</ele>
        <time>2019-04-14T11:12:36Z</time>
      </trkpt>
      <trkpt lat="42.50045" lon="2.23387">
        <ele>1138</ele>
        <time>2019-04-14T11:12:46Z</time>
      </trkpt>
      <trkpt lat="42.5004" lon="2.23397">
        <ele>1139</ele>
        <time>2019-04-14T11:12:53Z</time>
      </trkpt>
      <trkpt lat="42.50031" lon="2.23399">
        <ele>1138</ele>
        <time>2019-04-14T11:13:07Z</time>
      </trkpt>
      <trkpt lat="42.50026" lon="2.23411">
        <ele>1140</ele>
        <time>2019-04-14T11:13:15Z</time>
      </trkpt>
      <trkpt lat="42.50017" lon="2.23414">
        <ele>1141</ele>
        <time>2019-04-14T11:13:33Z</time>
      </trkpt>
      <trkpt lat="42.50009" lon="2.23421">
        <ele>1142</ele>
        <time>2019-04-14T11:13:40Z</time>
      </trkpt>
      <trkpt lat="42.50001" lon="2.23429">
        <ele>1144</ele>
        <time>2019-04-14T11:13:53Z</time>
      </trkpt>
      <trkpt lat="42.49993" lon="2.23436">
        <ele>1145</ele>
        <time>2019-04-14T11:14:05Z</time>
      </trkpt>
      <trkpt lat="42.49986" lon="2.23444">
        <ele>1146</ele>
        <time>2019-04-14T11:14:15Z</time>
      </trkpt>
      <trkpt lat="42.49977" lon="2.23455">
        <ele>1147</ele>
        <time>2019-04-14T11:14:29Z</time>
      </trkpt>
      <trkpt lat="42.49969" lon="2.23461">
        <ele>1149</ele>
        <time>2019-04-14T11:14:38Z</time>
      </trkpt>
      <trkpt lat="42.49959" lon="2.23465">
        <ele>1149</ele>
        <time>2019-04-14T11:14:46Z</time>
      </trkpt>
      <trkpt lat="42.4995" lon="2.23469">
        <ele>1151</ele>
        <time>2019-04-14T11:15:05Z</time>
      </trkpt>
      <trkpt lat="42.49942" lon="2.23475">
        <ele>1154</ele>
        <time>2019-04-14T11:15:16Z</time>
      </trkpt>
      <trkpt lat="42.49937" lon="2.23485">
        <ele>1154</ele>
        <time>2019-04-14T11:15:28Z</time>
      </trkpt>
      <trkpt lat="42.49933" lon="2.23498">
        <ele>1156</ele>
        <time>2019-04-14T11:15:38Z</time>
      </trkpt>
      <trkpt lat="42.49927" lon="2.23508">
        <ele>1156</ele>
        <time>2019-04-14T11:15:45Z</time>
      </trkpt>
      <trkpt lat="42.49922" lon="2.23519">
        <ele>1157</ele>
        <time>2019-04-14T11:15:57Z</time>
      </trkpt>
      <trkpt lat="42.49914" lon="2.23527">
        <ele>1158</ele>
        <time>2019-04-14T11:16:07Z</time>
      </trkpt>
      <trkpt lat="42.49905" lon="2.2353">
        <ele>1160</ele>
        <time>2019-04-14T11:16:20Z</time>
      </trkpt>
      <trkpt lat="42.499" lon="2.23541">
        <ele>1160</ele>
        <time>2019-04-14T11:16:29Z</time>
      </trkpt>
      <trkpt lat="42.49892" lon="2.23548">
        <ele>1161</ele>
        <time>2019-04-14T11:16:39Z</time>
      </trkpt>
      <trkpt lat="42.49889" lon="2.23561">
        <ele>1161</ele>
        <time>2019-04-14T11:16:49Z</time>
      </trkpt>
      <trkpt lat="42.49883" lon="2.23569">
        <ele>1162</ele>
        <time>2019-04-14T11:16:56Z</time>
      </trkpt>
      <trkpt lat="42.49876" lon="2.23578">
        <ele>1165</ele>
        <time>2019-04-14T11:17:12Z</time>
      </trkpt>
      <trkpt lat="42.49869" lon="2.23587">
        <ele>1164</ele>
        <time>2019-04-14T11:17:23Z</time>
      </trkpt>
      <trkpt lat="42.4986" lon="2.23595">
        <ele>1165</ele>
        <time>2019-04-14T11:17:32Z</time>
      </trkpt>
      <trkpt lat="42.49844" lon="2.23598">
        <ele>1168</ele>
        <time>2019-04-14T11:17:45Z</time>
      </trkpt>
      <trkpt lat="42.49835" lon="2.23605">
        <ele>1164</ele>
        <time>2019-04-14T11:17:52Z</time>
      </trkpt>
      <trkpt lat="42.49829" lon="2.23616">
        <ele>1168</ele>
        <time>2019-04-14T11:17:57Z</time>
      </trkpt>
      <trkpt lat="42.49821" lon="2.23621">
        <ele>1172</ele>
        <time>2019-04-14T11:18:14Z</time>
      </trkpt>
      <trkpt lat="42.49816" lon="2.23632">
        <ele>1171</ele>
        <time>2019-04-14T11:18:34Z</time>
      </trkpt>
      <trkpt lat="42.49807" lon="2.23639">
        <ele>1174</ele>
        <time>2019-04-14T11:18:45Z</time>
      </trkpt>
      <trkpt lat="42.49798" lon="2.23644">
        <ele>1175</ele>
        <time>2019-04-14T11:18:53Z</time>
      </trkpt>
      <trkpt lat="42.49791" lon="2.23651">
        <ele>1176</ele>
        <time>2019-04-14T11:19:03Z</time>
      </trkpt>
      <trkpt lat="42.49787" lon="2.23664">
        <ele>1180</ele>
        <time>2019-04-14T11:19:17Z</time>
      </trkpt>
      <trkpt lat="42.49772" lon="2.23673">
        <ele>1183</ele>
        <time>2019-04-14T11:19:39Z</time>
      </trkpt>
      <trkpt lat="42.49765" lon="2.23684">
        <ele>1183</ele>
        <time>2019-04-14T11:19:46Z</time>
      </trkpt>
      <trkpt lat="42.49756" lon="2.23683">
        <ele>1184</ele>
        <time>2019-04-14T11:19:51Z</time>
      </trkpt>
      <trkpt lat="42.49751" lon="2.23673">
        <ele>1185</ele>
        <time>2019-04-14T11:19:59Z</time>
      </trkpt>
      <trkpt lat="42.49742" lon="2.23666">
        <ele>1187</ele>
        <time>2019-04-14T11:20:25Z</time>
      </trkpt>
      <trkpt lat="42.49732" lon="2.23671">
        <ele>1187</ele>
        <time>2019-04-14T11:20:32Z</time>
      </trkpt>
      <trkpt lat="42.49724" lon="2.23678">
        <ele>1187</ele>
        <time>2019-04-14T11:20:38Z</time>
      </trkpt>
      <trkpt lat="42.49715" lon="2.23673">
        <ele>1189</ele>
        <time>2019-04-14T11:20:50Z</time>
      </trkpt>
      <trkpt lat="42.49706" lon="2.23668">
        <ele>1193</ele>
        <time>2019-04-14T11:21:04Z</time>
      </trkpt>
      <trkpt lat="42.49697" lon="2.23668">
        <ele>1194</ele>
        <time>2019-04-14T11:21:15Z</time>
      </trkpt>
      <trkpt lat="42.49688" lon="2.23669">
        <ele>1194</ele>
        <time>2019-04-14T11:21:24Z</time>
      </trkpt>
      <trkpt lat="42.49679" lon="2.23671">
        <ele>1196</ele>
        <time>2019-04-14T11:21:34Z</time>
      </trkpt>
      <trkpt lat="42.49671" lon="2.23678">
        <ele>1197</ele>
        <time>2019-04-14T11:21:41Z</time>
      </trkpt>
      <trkpt lat="42.49663" lon="2.23682">
        <ele>1199</ele>
        <time>2019-04-14T11:21:52Z</time>
      </trkpt>
      <trkpt lat="42.49663" lon="2.23695">
        <ele>1200</ele>
        <time>2019-04-14T11:22:05Z</time>
      </trkpt>
      <trkpt lat="42.49664" lon="2.23707">
        <ele>1201</ele>
        <time>2019-04-14T11:22:10Z</time>
      </trkpt>
      <trkpt lat="42.49655" lon="2.23715">
        <ele>1200</ele>
        <time>2019-04-14T11:22:18Z</time>
      </trkpt>
      <trkpt lat="42.49643" lon="2.23724">
        <ele>1200</ele>
        <time>2019-04-14T11:22:36Z</time>
      </trkpt>
      <trkpt lat="42.49633" lon="2.23714">
        <ele>1202</ele>
        <time>2019-04-14T11:22:46Z</time>
      </trkpt>
      <trkpt lat="42.49623" lon="2.2371">
        <ele>1203</ele>
        <time>2019-04-14T11:22:52Z</time>
      </trkpt>
      <trkpt lat="42.49614" lon="2.2371">
        <ele>1206</ele>
        <time>2019-04-14T11:22:58Z</time>
      </trkpt>
      <trkpt lat="42.49596" lon="2.23708">
        <ele>1207</ele>
        <time>2019-04-14T11:23:19Z</time>
      </trkpt>
      <trkpt lat="42.49587" lon="2.23712">
        <ele>1210</ele>
        <time>2019-04-14T11:23:34Z</time>
      </trkpt>
      <trkpt lat="42.49579" lon="2.23706">
        <ele>1210</ele>
        <time>2019-04-14T11:23:44Z</time>
      </trkpt>
      <trkpt lat="42.49566" lon="2.2371">
        <ele>1212</ele>
        <time>2019-04-14T11:24:30Z</time>
      </trkpt>
      <trkpt lat="42.4957" lon="2.23716">
        <ele>1210</ele>
        <time>2019-04-14T11:25:06Z</time>
      </trkpt>
      <trkpt lat="42.49579" lon="2.23728">
        <ele>1218</ele>
        <time>2019-04-14T11:25:13Z</time>
      </trkpt>
      <trkpt lat="42.49573" lon="2.23717">
        <ele>1220</ele>
        <time>2019-04-14T11:25:21Z</time>
      </trkpt>
      <trkpt lat="42.49568" lon="2.23706">
        <ele>1227</ele>
        <time>2019-04-14T11:25:36Z</time>
      </trkpt>
      <trkpt lat="42.49576" lon="2.23716">
        <ele>1224</ele>
        <time>2019-04-14T11:26:01Z</time>
      </trkpt>
      <trkpt lat="42.49585" lon="2.23722">
        <ele>1223</ele>
        <time>2019-04-14T11:26:25Z</time>
      </trkpt>
      <trkpt lat="42.49594" lon="2.23721">
        <ele>1220</ele>
        <time>2019-04-14T11:26:42Z</time>
      </trkpt>
      <trkpt lat="42.49581" lon="2.23713">
        <ele>1212</ele>
        <time>2019-04-14T11:26:48Z</time>
      </trkpt>
      <trkpt lat="42.49571" lon="2.23709">
        <ele>1220</ele>
        <time>2019-04-14T11:27:00Z</time>
      </trkpt>
      <trkpt lat="42.49578" lon="2.23721">
        <ele>1220</ele>
        <time>2019-04-14T11:27:20Z</time>
      </trkpt>
      <trkpt lat="42.49569" lon="2.23713">
        <ele>1224</ele>
        <time>2019-04-14T11:27:36Z</time>
      </trkpt>
      <trkpt lat="42.49559" lon="2.23711">
        <ele>1221</ele>
        <time>2019-04-14T11:27:41Z</time>
      </trkpt>
      <trkpt lat="42.49551" lon="2.23705">
        <ele>1215</ele>
        <time>2019-04-14T11:27:46Z</time>
      </trkpt>
      <trkpt lat="42.49541" lon="2.2371">
        <ele>1217</ele>
        <time>2019-04-14T11:28:28Z</time>
      </trkpt>
      <trkpt lat="42.49535" lon="2.23719">
        <ele>1226</ele>
        <time>2019-04-14T11:28:47Z</time>
      </trkpt>
      <trkpt lat="42.49531" lon="2.23731">
        <ele>1227</ele>
        <time>2019-04-14T11:29:04Z</time>
      </trkpt>
      <trkpt lat="42.49521" lon="2.23732">
        <ele>1227</ele>
        <time>2019-04-14T11:29:17Z</time>
      </trkpt>
      <trkpt lat="42.49512" lon="2.23734">
        <ele>1230</ele>
        <time>2019-04-14T11:29:26Z</time>
      </trkpt>
      <trkpt lat="42.4951" lon="2.23746">
        <ele>1228</ele>
        <time>2019-04-14T11:29:53Z</time>
      </trkpt>
      <trkpt lat="42.49511" lon="2.23733">
        <ele>1227</ele>
        <time>2019-04-14T11:30:13Z</time>
      </trkpt>
      <trkpt lat="42.49502" lon="2.23738">
        <ele>1231</ele>
        <time>2019-04-14T11:30:18Z</time>
      </trkpt>
      <trkpt lat="42.49491" lon="2.23753">
        <ele>1230</ele>
        <time>2019-04-14T11:31:07Z</time>
      </trkpt>
      <trkpt lat="42.49487" lon="2.23764">
        <ele>1228</ele>
        <time>2019-04-14T11:31:16Z</time>
      </trkpt>
      <trkpt lat="42.49478" lon="2.23771">
        <ele>1232</ele>
        <time>2019-04-14T11:32:00Z</time>
      </trkpt>
      <trkpt lat="42.49461" lon="2.23779">
        <ele>1233</ele>
        <time>2019-04-14T11:32:20Z</time>
      </trkpt>
      <trkpt lat="42.49456" lon="2.23788">
        <ele>1231</ele>
        <time>2019-04-14T11:32:26Z</time>
      </trkpt>
      <trkpt lat="42.49453" lon="2.23804">
        <ele>1231</ele>
        <time>2019-04-14T11:32:40Z</time>
      </trkpt>
      <trkpt lat="42.4945" lon="2.23816">
        <ele>1231</ele>
        <time>2019-04-14T11:32:51Z</time>
      </trkpt>
      <trkpt lat="42.49445" lon="2.23827">
        <ele>1233</ele>
        <time>2019-04-14T11:33:03Z</time>
      </trkpt>
      <trkpt lat="42.49436" lon="2.23832">
        <ele>1234</ele>
        <time>2019-04-14T11:33:18Z</time>
      </trkpt>
      <trkpt lat="42.49431" lon="2.23841">
        <ele>1234</ele>
        <time>2019-04-14T11:33:30Z</time>
      </trkpt>
      <trkpt lat="42.4943" lon="2.23854">
        <ele>1234</ele>
        <time>2019-04-14T11:33:41Z</time>
      </trkpt>
      <trkpt lat="42.49422" lon="2.23862">
        <ele>1238</ele>
        <time>2019-04-14T11:33:53Z</time>
      </trkpt>
      <trkpt lat="42.49411" lon="2.23866">
        <ele>1239</ele>
        <time>2019-04-14T11:34:02Z</time>
      </trkpt>
      <trkpt lat="42.4941" lon="2.23879">
        <ele>1239</ele>
        <time>2019-04-14T11:34:12Z</time>
      </trkpt>
      <trkpt lat="42.49404" lon="2.23889">
        <ele>1238</ele>
        <time>2019-04-14T11:34:22Z</time>
      </trkpt>
      <trkpt lat="42.49397" lon="2.23897">
        <ele>1241</ele>
        <time>2019-04-14T11:34:45Z</time>
      </trkpt>
      <trkpt lat="42.49391" lon="2.23909">
        <ele>1241</ele>
        <time>2019-04-14T11:34:55Z</time>
      </trkpt>
      <trkpt lat="42.49379" lon="2.23912">
        <ele>1241</ele>
        <time>2019-04-14T11:35:07Z</time>
      </trkpt>
      <trkpt lat="42.49371" lon="2.23918">
        <ele>1241</ele>
        <time>2019-04-14T11:35:21Z</time>
      </trkpt>
      <trkpt lat="42.49362" lon="2.2392">
        <ele>1242</ele>
        <time>2019-04-14T11:35:29Z</time>
      </trkpt>
      <trkpt lat="42.49356" lon="2.2393">
        <ele>1243</ele>
        <time>2019-04-14T11:35:44Z</time>
      </trkpt>
      <trkpt lat="42.49346" lon="2.23925">
        <ele>1244</ele>
        <time>2019-04-14T11:35:58Z</time>
      </trkpt>
      <trkpt lat="42.49337" lon="2.23929">
        <ele>1245</ele>
        <time>2019-04-14T11:36:05Z</time>
      </trkpt>
      <trkpt lat="42.49328" lon="2.23931">
        <ele>1247</ele>
        <time>2019-04-14T11:36:28Z</time>
      </trkpt>
      <trkpt lat="42.49318" lon="2.23934">
        <ele>1247</ele>
        <time>2019-04-14T11:36:37Z</time>
      </trkpt>
      <trkpt lat="42.49309" lon="2.23934">
        <ele>1248</ele>
        <time>2019-04-14T11:36:43Z</time>
      </trkpt>
      <trkpt lat="42.49299" lon="2.23927">
        <ele>1246</ele>
        <time>2019-04-14T11:37:09Z</time>
      </trkpt>
      <trkpt lat="42.49292" lon="2.2392">
        <ele>1247</ele>
        <time>2019-04-14T11:37:56Z</time>
      </trkpt>
      <trkpt lat="42.49283" lon="2.23922">
        <ele>1246</ele>
        <time>2019-04-14T11:38:22Z</time>
      </trkpt>
      <trkpt lat="42.49274" lon="2.23926">
        <ele>1248</ele>
        <time>2019-04-14T11:38:39Z</time>
      </trkpt>
      <trkpt lat="42.49265" lon="2.23923">
        <ele>1250</ele>
        <time>2019-04-14T11:38:52Z</time>
      </trkpt>
      <trkpt lat="42.49255" lon="2.23923">
        <ele>1252</ele>
        <time>2019-04-14T11:39:10Z</time>
      </trkpt>
      <trkpt lat="42.49264" lon="2.23918">
        <ele>1251</ele>
        <time>2019-04-14T11:39:29Z</time>
      </trkpt>
      <trkpt lat="42.49266" lon="2.23906">
        <ele>1247</ele>
        <time>2019-04-14T11:40:21Z</time>
      </trkpt>
      <trkpt lat="42.4925" lon="2.23901">
        <ele>1253</ele>
        <time>2019-04-14T11:40:45Z</time>
      </trkpt>
      <trkpt lat="42.49241" lon="2.23894">
        <ele>1251</ele>
        <time>2019-04-14T11:40:52Z</time>
      </trkpt>
      <trkpt lat="42.49232" lon="2.23895">
        <ele>1255</ele>
        <time>2019-04-14T11:41:14Z</time>
      </trkpt>
      <trkpt lat="42.49223" lon="2.23894">
        <ele>1255</ele>
        <time>2019-04-14T11:41:24Z</time>
      </trkpt>
      <trkpt lat="42.49217" lon="2.23906">
        <ele>1257</ele>
        <time>2019-04-14T11:41:29Z</time>
      </trkpt>
      <trkpt lat="42.49211" lon="2.23916">
        <ele>1257</ele>
        <time>2019-04-14T11:41:42Z</time>
      </trkpt>
      <trkpt lat="42.492" lon="2.23914">
        <ele>1259</ele>
        <time>2019-04-14T11:42:05Z</time>
      </trkpt>
      <trkpt lat="42.4919" lon="2.23914">
        <ele>1261</ele>
        <time>2019-04-14T11:42:18Z</time>
      </trkpt>
      <trkpt lat="42.49181" lon="2.2391">
        <ele>1261</ele>
        <time>2019-04-14T11:42:28Z</time>
      </trkpt>
      <trkpt lat="42.49172" lon="2.23904">
        <ele>1263</ele>
        <time>2019-04-14T11:42:38Z</time>
      </trkpt>
      <trkpt lat="42.49162" lon="2.239">
        <ele>1267</ele>
        <time>2019-04-14T11:42:44Z</time>
      </trkpt>
      <trkpt lat="42.49153" lon="2.23901">
        <ele>1266</ele>
        <time>2019-04-14T11:42:53Z</time>
      </trkpt>
      <trkpt lat="42.49143" lon="2.23904">
        <ele>1269</ele>
        <time>2019-04-14T11:43:02Z</time>
      </trkpt>
      <trkpt lat="42.49134" lon="2.23905">
        <ele>1271</ele>
        <time>2019-04-14T11:43:13Z</time>
      </trkpt>
      <trkpt lat="42.49125" lon="2.2391">
        <ele>1270</ele>
        <time>2019-04-14T11:43:33Z</time>
      </trkpt>
      <trkpt lat="42.49119" lon="2.2392">
        <ele>1277</ele>
        <time>2019-04-14T11:43:47Z</time>
      </trkpt>
      <trkpt lat="42.4911" lon="2.23923">
        <ele>1279</ele>
        <time>2019-04-14T11:43:59Z</time>
      </trkpt>
      <trkpt lat="42.49102" lon="2.2393">
        <ele>1282</ele>
        <time>2019-04-14T11:44:11Z</time>
      </trkpt>
      <trkpt lat="42.49094" lon="2.23937">
        <ele>1283</ele>
        <time>2019-04-14T11:44:24Z</time>
      </trkpt>
      <trkpt lat="42.49085" lon="2.2394">
        <ele>1285</ele>
        <time>2019-04-14T11:44:35Z</time>
      </trkpt>
      <trkpt lat="42.49077" lon="2.23944">
        <ele>1285</ele>
        <time>2019-04-14T11:44:48Z</time>
      </trkpt>
      <trkpt lat="42.49073" lon="2.23956">
        <ele>1286</ele>
        <time>2019-04-14T11:45:00Z</time>
      </trkpt>
      <trkpt lat="42.49066" lon="2.23964">
        <ele>1288</ele>
        <time>2019-04-14T11:45:15Z</time>
      </trkpt>
      <trkpt lat="42.49057" lon="2.23968">
        <ele>1290</ele>
        <time>2019-04-14T11:45:29Z</time>
      </trkpt>
      <trkpt lat="42.4905" lon="2.23977">
        <ele>1291</ele>
        <time>2019-04-14T11:45:54Z</time>
      </trkpt>
      <trkpt lat="42.49041" lon="2.23977">
        <ele>1290</ele>
        <time>2019-04-14T11:46:03Z</time>
      </trkpt>
      <trkpt lat="42.49032" lon="2.23977">
        <ele>1290</ele>
        <time>2019-04-14T11:46:15Z</time>
      </trkpt>
      <trkpt lat="42.49022" lon="2.23978">
        <ele>1291</ele>
        <time>2019-04-14T11:46:26Z</time>
      </trkpt>
      <trkpt lat="42.49014" lon="2.2397">
        <ele>1294</ele>
        <time>2019-04-14T11:46:36Z</time>
      </trkpt>
      <trkpt lat="42.49012" lon="2.23958">
        <ele>1291</ele>
        <time>2019-04-14T11:46:48Z</time>
      </trkpt>
      <trkpt lat="42.49004" lon="2.23949">
        <ele>1301</ele>
        <time>2019-04-14T11:47:11Z</time>
      </trkpt>
      <trkpt lat="42.48996" lon="2.23944">
        <ele>1302</ele>
        <time>2019-04-14T11:47:22Z</time>
      </trkpt>
      <trkpt lat="42.48987" lon="2.2394">
        <ele>1302</ele>
        <time>2019-04-14T11:47:30Z</time>
      </trkpt>
      <trkpt lat="42.48978" lon="2.23944">
        <ele>1300</ele>
        <time>2019-04-14T11:47:35Z</time>
      </trkpt>
      <trkpt lat="42.48968" lon="2.23943">
        <ele>1301</ele>
        <time>2019-04-14T11:47:45Z</time>
      </trkpt>
      <trkpt lat="42.48959" lon="2.23944">
        <ele>1301</ele>
        <time>2019-04-14T11:47:54Z</time>
      </trkpt>
      <trkpt lat="42.48953" lon="2.23935">
        <ele>1302</ele>
        <time>2019-04-14T11:48:12Z</time>
      </trkpt>
      <trkpt lat="42.48949" lon="2.23924">
        <ele>1304</ele>
        <time>2019-04-14T11:48:25Z</time>
      </trkpt>
      <trkpt lat="42.48945" lon="2.23913">
        <ele>1306</ele>
        <time>2019-04-14T11:48:40Z</time>
      </trkpt>
      <trkpt lat="42.48938" lon="2.23904">
        <ele>1303</ele>
        <time>2019-04-14T11:49:01Z</time>
      </trkpt>
      <trkpt lat="42.48927" lon="2.23893">
        <ele>1313</ele>
        <time>2019-04-14T11:49:38Z</time>
      </trkpt>
      <trkpt lat="42.48922" lon="2.23883">
        <ele>1315</ele>
        <time>2019-04-14T11:49:47Z</time>
      </trkpt>
      <trkpt lat="42.48917" lon="2.23871">
        <ele>1315</ele>
        <time>2019-04-14T11:50:03Z</time>
      </trkpt>
      <trkpt lat="42.48908" lon="2.23865">
        <ele>1315</ele>
        <time>2019-04-14T11:50:15Z</time>
      </trkpt>
      <trkpt lat="42.48901" lon="2.23858">
        <ele>1315</ele>
        <time>2019-04-14T11:50:25Z</time>
      </trkpt>
      <trkpt lat="42.48892" lon="2.23857">
        <ele>1316</ele>
        <time>2019-04-14T11:50:39Z</time>
      </trkpt>
      <trkpt lat="42.48886" lon="2.23846">
        <ele>1317</ele>
        <time>2019-04-14T11:50:53Z</time>
      </trkpt>
      <trkpt lat="42.4888" lon="2.23837">
        <ele>1321</ele>
        <time>2019-04-14T11:51:10Z</time>
      </trkpt>
      <trkpt lat="42.48871" lon="2.23833">
        <ele>1324</ele>
        <time>2019-04-14T11:51:27Z</time>
      </trkpt>
      <trkpt lat="42.48863" lon="2.23826">
        <ele>1322</ele>
        <time>2019-04-14T11:51:41Z</time>
      </trkpt>
      <trkpt lat="42.48855" lon="2.23819">
        <ele>1325</ele>
        <time>2019-04-14T11:51:57Z</time>
      </trkpt>
      <trkpt lat="42.48848" lon="2.23812">
        <ele>1329</ele>
        <time>2019-04-14T11:52:21Z</time>
      </trkpt>
      <trkpt lat="42.4884" lon="2.23816">
        <ele>1328</ele>
        <time>2019-04-14T11:52:39Z</time>
      </trkpt>
      <trkpt lat="42.4883" lon="2.23817">
        <ele>1327</ele>
        <time>2019-04-14T11:52:53Z</time>
      </trkpt>
      <trkpt lat="42.48822" lon="2.23812">
        <ele>1333</ele>
        <time>2019-04-14T11:53:07Z</time>
      </trkpt>
      <trkpt lat="42.48814" lon="2.23804">
        <ele>1330</ele>
        <time>2019-04-14T11:53:18Z</time>
      </trkpt>
      <trkpt lat="42.48804" lon="2.23799">
        <ele>1334</ele>
        <time>2019-04-14T11:53:27Z</time>
      </trkpt>
      <trkpt lat="42.48795" lon="2.23797">
        <ele>1337</ele>
        <time>2019-04-14T11:53:37Z</time>
      </trkpt>
      <trkpt lat="42.48786" lon="2.23795">
        <ele>1339</ele>
        <time>2019-04-14T11:53:55Z</time>
      </trkpt>
      <trkpt lat="42.48778" lon="2.238">
        <ele>1339</ele>
        <time>2019-04-14T11:54:06Z</time>
      </trkpt>
      <trkpt lat="42.4877" lon="2.23807">
        <ele>1344</ele>
        <time>2019-04-14T11:54:29Z</time>
      </trkpt>
      <trkpt lat="42.48761" lon="2.23808">
        <ele>1343</ele>
        <time>2019-04-14T11:54:42Z</time>
      </trkpt>
      <trkpt lat="42.48756" lon="2.23819">
        <ele>1346</ele>
        <time>2019-04-14T11:54:57Z</time>
      </trkpt>
      <trkpt lat="42.48747" lon="2.2382">
        <ele>1350</ele>
        <time>2019-04-14T11:55:17Z</time>
      </trkpt>
      <trkpt lat="42.4874" lon="2.2383">
        <ele>1351</ele>
        <time>2019-04-14T11:55:31Z</time>
      </trkpt>
      <trkpt lat="42.48731" lon="2.23835">
        <ele>1353</ele>
        <time>2019-04-14T11:55:47Z</time>
      </trkpt>
      <trkpt lat="42.48722" lon="2.23833">
        <ele>1356</ele>
        <time>2019-04-14T11:55:58Z</time>
      </trkpt>
      <trkpt lat="42.48714" lon="2.23838">
        <ele>1355</ele>
        <time>2019-04-14T11:56:15Z</time>
      </trkpt>
      <trkpt lat="42.48704" lon="2.23835">
        <ele>1356</ele>
        <time>2019-04-14T11:56:25Z</time>
      </trkpt>
      <trkpt lat="42.48697" lon="2.23842">
        <ele>1358</ele>
        <time>2019-04-14T11:56:40Z</time>
      </trkpt>
      <trkpt lat="42.48688" lon="2.23841">
        <ele>1358</ele>
        <time>2019-04-14T11:56:51Z</time>
      </trkpt>
      <trkpt lat="42.48678" lon="2.23838">
        <ele>1358</ele>
        <time>2019-04-14T11:57:02Z</time>
      </trkpt>
      <trkpt lat="42.48669" lon="2.23834">
        <ele>1358</ele>
        <time>2019-04-14T11:57:18Z</time>
      </trkpt>
      <trkpt lat="42.4866" lon="2.2383">
        <ele>1361</ele>
        <time>2019-04-14T11:57:29Z</time>
      </trkpt>
      <trkpt lat="42.4865" lon="2.23829">
        <ele>1360</ele>
        <time>2019-04-14T11:57:52Z</time>
      </trkpt>
      <trkpt lat="42.48641" lon="2.23826">
        <ele>1363</ele>
        <time>2019-04-14T11:58:03Z</time>
      </trkpt>
      <trkpt lat="42.48632" lon="2.23828">
        <ele>1364</ele>
        <time>2019-04-14T11:58:19Z</time>
      </trkpt>
      <trkpt lat="42.48623" lon="2.23826">
        <ele>1367</ele>
        <time>2019-04-14T11:58:32Z</time>
      </trkpt>
      <trkpt lat="42.48613" lon="2.23824">
        <ele>1364</ele>
        <time>2019-04-14T11:58:46Z</time>
      </trkpt>
      <trkpt lat="42.48607" lon="2.23834">
        <ele>1364</ele>
        <time>2019-04-14T11:58:59Z</time>
      </trkpt>
      <trkpt lat="42.48599" lon="2.23838">
        <ele>1373</ele>
        <time>2019-04-14T11:59:17Z</time>
      </trkpt>
      <trkpt lat="42.48591" lon="2.23831">
        <ele>1371</ele>
        <time>2019-04-14T11:59:36Z</time>
      </trkpt>
      <trkpt lat="42.48601" lon="2.23836">
        <ele>1371</ele>
        <time>2019-04-14T12:00:23Z</time>
      </trkpt>
      <trkpt lat="42.48611" lon="2.23837">
        <ele>1371</ele>
        <time>2019-04-14T12:00:33Z</time>
      </trkpt>
      <trkpt lat="42.48603" lon="2.23825">
        <ele>1372</ele>
        <time>2019-04-14T12:00:39Z</time>
      </trkpt>
      <trkpt lat="42.48585" lon="2.23833">
        <ele>1374</ele>
        <time>2019-04-14T12:00:48Z</time>
      </trkpt>
      <trkpt lat="42.48575" lon="2.23825">
        <ele>1376</ele>
        <time>2019-04-14T12:01:15Z</time>
      </trkpt>
      <trkpt lat="42.48565" lon="2.23827">
        <ele>1372</ele>
        <time>2019-04-14T12:01:27Z</time>
      </trkpt>
      <trkpt lat="42.48556" lon="2.23828">
        <ele>1377</ele>
        <time>2019-04-14T12:01:43Z</time>
      </trkpt>
      <trkpt lat="42.48547" lon="2.23832">
        <ele>1381</ele>
        <time>2019-04-14T12:01:56Z</time>
      </trkpt>
      <trkpt lat="42.48542" lon="2.23843">
        <ele>1377</ele>
        <time>2019-04-14T12:02:06Z</time>
      </trkpt>
      <trkpt lat="42.48533" lon="2.23846">
        <ele>1379</ele>
        <time>2019-04-14T12:02:18Z</time>
      </trkpt>
      <trkpt lat="42.48523" lon="2.23848">
        <ele>1380</ele>
        <time>2019-04-14T12:02:37Z</time>
      </trkpt>
      <trkpt lat="42.48514" lon="2.2385">
        <ele>1382</ele>
        <time>2019-04-14T12:02:51Z</time>
      </trkpt>
      <trkpt lat="42.48506" lon="2.23852">
        <ele>1388</ele>
        <time>2019-04-14T12:03:05Z</time>
      </trkpt>
      <trkpt lat="42.48504" lon="2.23865">
        <ele>1386</ele>
        <time>2019-04-14T12:03:19Z</time>
      </trkpt>
      <trkpt lat="42.48494" lon="2.23866">
        <ele>1393</ele>
        <time>2019-04-14T12:03:34Z</time>
      </trkpt>
      <trkpt lat="42.48487" lon="2.23862">
        <ele>1394</ele>
        <time>2019-04-14T12:04:04Z</time>
      </trkpt>
      <trkpt lat="42.48477" lon="2.23866">
        <ele>1391</ele>
        <time>2019-04-14T12:04:09Z</time>
      </trkpt>
      <trkpt lat="42.48469" lon="2.23874">
        <ele>1385</ele>
        <time>2019-04-14T12:04:24Z</time>
      </trkpt>
      <trkpt lat="42.48463" lon="2.23884">
        <ele>1387</ele>
        <time>2019-04-14T12:04:37Z</time>
      </trkpt>
      <trkpt lat="42.48454" lon="2.23883">
        <ele>1390</ele>
        <time>2019-04-14T12:05:04Z</time>
      </trkpt>
      <trkpt lat="42.48448" lon="2.23892">
        <ele>1399</ele>
        <time>2019-04-14T12:05:13Z</time>
      </trkpt>
      <trkpt lat="42.48438" lon="2.23893">
        <ele>1396</ele>
        <time>2019-04-14T12:05:28Z</time>
      </trkpt>
      <trkpt lat="42.4843" lon="2.239">
        <ele>1397</ele>
        <time>2019-04-14T12:05:47Z</time>
      </trkpt>
      <trkpt lat="42.4842" lon="2.23899">
        <ele>1400</ele>
        <time>2019-04-14T12:06:05Z</time>
      </trkpt>
      <trkpt lat="42.48419" lon="2.23887">
        <ele>1407</ele>
        <time>2019-04-14T12:06:21Z</time>
      </trkpt>
      <trkpt lat="42.48428" lon="2.23883">
        <ele>1406</ele>
        <time>2019-04-14T12:06:41Z</time>
      </trkpt>
      <trkpt lat="42.48437" lon="2.23884">
        <ele>1408</ele>
        <time>2019-04-14T12:07:03Z</time>
      </trkpt>
      <trkpt lat="42.48445" lon="2.23879">
        <ele>1417</ele>
        <time>2019-04-14T12:07:28Z</time>
      </trkpt>
      <trkpt lat="42.48452" lon="2.23888">
        <ele>1417</ele>
        <time>2019-04-14T12:07:36Z</time>
      </trkpt>
      <trkpt lat="42.48462" lon="2.23881">
        <ele>1417</ele>
        <time>2019-04-14T12:07:46Z</time>
      </trkpt>
      <trkpt lat="42.48471" lon="2.23877">
        <ele>1420</ele>
        <time>2019-04-14T12:08:12Z</time>
      </trkpt>
      <trkpt lat="42.48477" lon="2.23867">
        <ele>1420</ele>
        <time>2019-04-14T12:08:18Z</time>
      </trkpt>
      <trkpt lat="42.48486" lon="2.23862">
        <ele>1421</ele>
        <time>2019-04-14T12:08:28Z</time>
      </trkpt>
      <trkpt lat="42.48483" lon="2.23856">
        <ele>1420</ele>
        <time>2019-04-14T12:08:53Z</time>
      </trkpt>
      <trkpt lat="42.48485" lon="2.23843">
        <ele>1420</ele>
        <time>2019-04-14T12:09:11Z</time>
      </trkpt>
      <trkpt lat="42.48475" lon="2.23842">
        <ele>1423</ele>
        <time>2019-04-14T12:09:39Z</time>
      </trkpt>
      <trkpt lat="42.48478" lon="2.23829">
        <ele>1424</ele>
        <time>2019-04-14T12:09:53Z</time>
      </trkpt>
      <trkpt lat="42.48471" lon="2.23836">
        <ele>1425</ele>
        <time>2019-04-14T12:10:09Z</time>
      </trkpt>
      <trkpt lat="42.48461" lon="2.23831">
        <ele>1427</ele>
        <time>2019-04-14T12:10:21Z</time>
      </trkpt>
      <trkpt lat="42.48453" lon="2.23819">
        <ele>1426</ele>
        <time>2019-04-14T12:10:27Z</time>
      </trkpt>
      <trkpt lat="42.48463" lon="2.23821">
        <ele>1428</ele>
        <time>2019-04-14T12:11:01Z</time>
      </trkpt>
      <trkpt lat="42.48473" lon="2.23822">
        <ele>1429</ele>
        <time>2019-04-14T12:11:09Z</time>
      </trkpt>
      <trkpt lat="42.48481" lon="2.23819">
        <ele>1431</ele>
        <time>2019-04-14T12:12:21Z</time>
      </trkpt>
      <trkpt lat="42.4849" lon="2.23824">
        <ele>1431</ele>
        <time>2019-04-14T12:13:43Z</time>
      </trkpt>
      <trkpt lat="42.485" lon="2.23823">
        <ele>1431</ele>
        <time>2019-04-14T12:14:05Z</time>
      </trkpt>
      <trkpt lat="42.48506" lon="2.23833">
        <ele>1428</ele>
        <time>2019-04-14T12:16:05Z</time>
      </trkpt>
      <trkpt lat="42.48512" lon="2.23823">
        <ele>1427</ele>
        <time>2019-04-14T12:16:17Z</time>
      </trkpt>
      <trkpt lat="42.48524" lon="2.23815">
        <ele>1427</ele>
        <time>2019-04-14T12:16:35Z</time>
      </trkpt>
      <trkpt lat="42.48522" lon="2.23803">
        <ele>1427</ele>
        <time>2019-04-14T12:16:52Z</time>
      </trkpt>
      <trkpt lat="42.4855" lon="2.23855">
        <ele>1421</ele>
        <time>2019-04-14T12:16:59Z</time>
      </trkpt>
      <trkpt lat="42.48536" lon="2.23827">
        <ele>1422</ele>
        <time>2019-04-14T12:17:11Z</time>
      </trkpt>
      <trkpt lat="42.48527" lon="2.23824">
        <ele>1426</ele>
        <time>2019-04-14T12:17:29Z</time>
      </trkpt>
      <trkpt lat="42.48518" lon="2.23825">
        <ele>1428</ele>
        <time>2019-04-14T12:46:47Z</time>
      </trkpt>
      <trkpt lat="42.48512" lon="2.23834">
        <ele>1428</ele>
        <time>2019-04-14T12:47:07Z</time>
      </trkpt>
      <trkpt lat="42.48522" lon="2.23834">
        <ele>1425</ele>
        <time>2019-04-14T12:47:49Z</time>
      </trkpt>
      <trkpt lat="42.48531" lon="2.23829">
        <ele>1425</ele>
        <time>2019-04-14T12:47:59Z</time>
      </trkpt>
      <trkpt lat="42.48541" lon="2.23826">
        <ele>1425</ele>
        <time>2019-04-14T12:48:10Z</time>
      </trkpt>
      <trkpt lat="42.4855" lon="2.23826">
        <ele>1424</ele>
        <time>2019-04-14T12:48:21Z</time>
      </trkpt>
      <trkpt lat="42.48558" lon="2.2383">
        <ele>1422</ele>
        <time>2019-04-14T12:48:32Z</time>
      </trkpt>
      <trkpt lat="42.48568" lon="2.23829">
        <ele>1422</ele>
        <time>2019-04-14T12:48:44Z</time>
      </trkpt>
      <trkpt lat="42.48577" lon="2.23833">
        <ele>1421</ele>
        <time>2019-04-14T12:48:53Z</time>
      </trkpt>
      <trkpt lat="42.48587" lon="2.23832">
        <ele>1420</ele>
        <time>2019-04-14T12:49:04Z</time>
      </trkpt>
      <trkpt lat="42.48596" lon="2.2383">
        <ele>1419</ele>
        <time>2019-04-14T12:49:09Z</time>
      </trkpt>
      <trkpt lat="42.48606" lon="2.23827">
        <ele>1419</ele>
        <time>2019-04-14T12:49:20Z</time>
      </trkpt>
      <trkpt lat="42.48615" lon="2.23823">
        <ele>1418</ele>
        <time>2019-04-14T12:49:30Z</time>
      </trkpt>
      <trkpt lat="42.48625" lon="2.23826">
        <ele>1417</ele>
        <time>2019-04-14T12:49:45Z</time>
      </trkpt>
      <trkpt lat="42.48634" lon="2.23824">
        <ele>1415</ele>
        <time>2019-04-14T12:49:51Z</time>
      </trkpt>
      <trkpt lat="42.48644" lon="2.23824">
        <ele>1413</ele>
        <time>2019-04-14T12:49:59Z</time>
      </trkpt>
      <trkpt lat="42.48653" lon="2.23825">
        <ele>1410</ele>
        <time>2019-04-14T12:50:09Z</time>
      </trkpt>
      <trkpt lat="42.48661" lon="2.23833">
        <ele>1407</ele>
        <time>2019-04-14T12:50:23Z</time>
      </trkpt>
      <trkpt lat="42.4867" lon="2.23833">
        <ele>1406</ele>
        <time>2019-04-14T12:50:28Z</time>
      </trkpt>
      <trkpt lat="42.48678" lon="2.23839">
        <ele>1404</ele>
        <time>2019-04-14T12:50:37Z</time>
      </trkpt>
      <trkpt lat="42.48688" lon="2.23837">
        <ele>1403</ele>
        <time>2019-04-14T12:50:46Z</time>
      </trkpt>
      <trkpt lat="42.48695" lon="2.2383">
        <ele>1401</ele>
        <time>2019-04-14T12:50:55Z</time>
      </trkpt>
      <trkpt lat="42.48704" lon="2.23824">
        <ele>1401</ele>
        <time>2019-04-14T12:51:05Z</time>
      </trkpt>
      <trkpt lat="42.48714" lon="2.23827">
        <ele>1398</ele>
        <time>2019-04-14T12:51:21Z</time>
      </trkpt>
      <trkpt lat="42.48722" lon="2.23822">
        <ele>1397</ele>
        <time>2019-04-14T12:51:28Z</time>
      </trkpt>
      <trkpt lat="42.4873" lon="2.23817">
        <ele>1396</ele>
        <time>2019-04-14T12:51:40Z</time>
      </trkpt>
      <trkpt lat="42.48738" lon="2.23811">
        <ele>1395</ele>
        <time>2019-04-14T12:51:50Z</time>
      </trkpt>
      <trkpt lat="42.48748" lon="2.23806">
        <ele>1394</ele>
        <time>2019-04-14T12:52:05Z</time>
      </trkpt>
      <trkpt lat="42.48756" lon="2.238">
        <ele>1393</ele>
        <time>2019-04-14T12:52:14Z</time>
      </trkpt>
      <trkpt lat="42.48764" lon="2.23793">
        <ele>1392</ele>
        <time>2019-04-14T12:52:25Z</time>
      </trkpt>
      <trkpt lat="42.48773" lon="2.23796">
        <ele>1389</ele>
        <time>2019-04-14T12:52:43Z</time>
      </trkpt>
      <trkpt lat="42.48782" lon="2.23796">
        <ele>1387</ele>
        <time>2019-04-14T12:53:03Z</time>
      </trkpt>
      <trkpt lat="42.48789" lon="2.23804">
        <ele>1384</ele>
        <time>2019-04-14T12:53:16Z</time>
      </trkpt>
      <trkpt lat="42.48798" lon="2.23805">
        <ele>1382</ele>
        <time>2019-04-14T12:53:23Z</time>
      </trkpt>
      <trkpt lat="42.48806" lon="2.23813">
        <ele>1380</ele>
        <time>2019-04-14T12:53:34Z</time>
      </trkpt>
      <trkpt lat="42.48814" lon="2.23819">
        <ele>1377</ele>
        <time>2019-04-14T12:53:55Z</time>
      </trkpt>
      <trkpt lat="42.4882" lon="2.23811">
        <ele>1376</ele>
        <time>2019-04-14T12:54:03Z</time>
      </trkpt>
      <trkpt lat="42.48826" lon="2.23822">
        <ele>1373</ele>
        <time>2019-04-14T12:54:13Z</time>
      </trkpt>
      <trkpt lat="42.48833" lon="2.23831">
        <ele>1371</ele>
        <time>2019-04-14T12:54:21Z</time>
      </trkpt>
      <trkpt lat="42.48841" lon="2.23836">
        <ele>1369</ele>
        <time>2019-04-14T12:54:33Z</time>
      </trkpt>
      <trkpt lat="42.4885" lon="2.23841">
        <ele>1369</ele>
        <time>2019-04-14T12:54:56Z</time>
      </trkpt>
      <trkpt lat="42.48857" lon="2.23847">
        <ele>1366</ele>
        <time>2019-04-14T12:55:15Z</time>
      </trkpt>
      <trkpt lat="42.48864" lon="2.23857">
        <ele>1365</ele>
        <time>2019-04-14T12:55:25Z</time>
      </trkpt>
      <trkpt lat="42.48865" lon="2.2387">
        <ele>1362</ele>
        <time>2019-04-14T12:55:35Z</time>
      </trkpt>
      <trkpt lat="42.48875" lon="2.23867">
        <ele>1361</ele>
        <time>2019-04-14T12:55:52Z</time>
      </trkpt>
      <trkpt lat="42.48884" lon="2.23861">
        <ele>1360</ele>
        <time>2019-04-14T12:56:00Z</time>
      </trkpt>
      <trkpt lat="42.48889" lon="2.2387">
        <ele>1358</ele>
        <time>2019-04-14T12:56:14Z</time>
      </trkpt>
      <trkpt lat="42.48896" lon="2.23881">
        <ele>1356</ele>
        <time>2019-04-14T12:56:25Z</time>
      </trkpt>
      <trkpt lat="42.489" lon="2.23892">
        <ele>1356</ele>
        <time>2019-04-14T12:56:34Z</time>
      </trkpt>
      <trkpt lat="42.48909" lon="2.23896">
        <ele>1354</ele>
        <time>2019-04-14T12:56:44Z</time>
      </trkpt>
      <trkpt lat="42.48915" lon="2.23905">
        <ele>1352</ele>
        <time>2019-04-14T12:56:53Z</time>
      </trkpt>
      <trkpt lat="42.48917" lon="2.23917">
        <ele>1351</ele>
        <time>2019-04-14T12:57:06Z</time>
      </trkpt>
      <trkpt lat="42.48914" lon="2.23929">
        <ele>1349</ele>
        <time>2019-04-14T12:57:23Z</time>
      </trkpt>
      <trkpt lat="42.48922" lon="2.23936">
        <ele>1351</ele>
        <time>2019-04-14T12:57:34Z</time>
      </trkpt>
      <trkpt lat="42.48929" lon="2.23945">
        <ele>1350</ele>
        <time>2019-04-14T12:57:44Z</time>
      </trkpt>
      <trkpt lat="42.48937" lon="2.23941">
        <ele>1348</ele>
        <time>2019-04-14T12:57:52Z</time>
      </trkpt>
      <trkpt lat="42.48948" lon="2.23939">
        <ele>1349</ele>
        <time>2019-04-14T12:58:00Z</time>
      </trkpt>
      <trkpt lat="42.48957" lon="2.23941">
        <ele>1349</ele>
        <time>2019-04-14T12:58:10Z</time>
      </trkpt>
      <trkpt lat="42.48966" lon="2.23941">
        <ele>1348</ele>
        <time>2019-04-14T12:58:19Z</time>
      </trkpt>
      <trkpt lat="42.48974" lon="2.23946">
        <ele>1346</ele>
        <time>2019-04-14T12:58:27Z</time>
      </trkpt>
      <trkpt lat="42.48984" lon="2.23948">
        <ele>1345</ele>
        <time>2019-04-14T12:58:33Z</time>
      </trkpt>
      <trkpt lat="42.48992" lon="2.23954">
        <ele>1344</ele>
        <time>2019-04-14T12:58:39Z</time>
      </trkpt>
      <trkpt lat="42.48999" lon="2.23963">
        <ele>1343</ele>
        <time>2019-04-14T12:58:47Z</time>
      </trkpt>
      <trkpt lat="42.49008" lon="2.23966">
        <ele>1340</ele>
        <time>2019-04-14T12:59:00Z</time>
      </trkpt>
      <trkpt lat="42.49017" lon="2.23969">
        <ele>1340</ele>
        <time>2019-04-14T12:59:05Z</time>
      </trkpt>
      <trkpt lat="42.49027" lon="2.23969">
        <ele>1338</ele>
        <time>2019-04-14T12:59:14Z</time>
      </trkpt>
      <trkpt lat="42.49036" lon="2.23968">
        <ele>1336</ele>
        <time>2019-04-14T12:59:20Z</time>
      </trkpt>
      <trkpt lat="42.49045" lon="2.23967">
        <ele>1336</ele>
        <time>2019-04-14T12:59:27Z</time>
      </trkpt>
      <trkpt lat="42.49056" lon="2.23964">
        <ele>1335</ele>
        <time>2019-04-14T12:59:32Z</time>
      </trkpt>
      <trkpt lat="42.49066" lon="2.23961">
        <ele>1334</ele>
        <time>2019-04-14T12:59:37Z</time>
      </trkpt>
      <trkpt lat="42.49074" lon="2.23955">
        <ele>1332</ele>
        <time>2019-04-14T12:59:52Z</time>
      </trkpt>
      <trkpt lat="42.49084" lon="2.23952">
        <ele>1332</ele>
        <time>2019-04-14T13:00:02Z</time>
      </trkpt>
      <trkpt lat="42.49087" lon="2.2394">
        <ele>1331</ele>
        <time>2019-04-14T13:00:11Z</time>
      </trkpt>
      <trkpt lat="42.49093" lon="2.23928">
        <ele>1330</ele>
        <time>2019-04-14T13:00:19Z</time>
      </trkpt>
      <trkpt lat="42.49101" lon="2.23923">
        <ele>1329</ele>
        <time>2019-04-14T13:00:30Z</time>
      </trkpt>
      <trkpt lat="42.49109" lon="2.23915">
        <ele>1327</ele>
        <time>2019-04-14T13:00:43Z</time>
      </trkpt>
      <trkpt lat="42.49116" lon="2.23907">
        <ele>1327</ele>
        <time>2019-04-14T13:00:59Z</time>
      </trkpt>
      <trkpt lat="42.49125" lon="2.23902">
        <ele>1326</ele>
        <time>2019-04-14T13:01:05Z</time>
      </trkpt>
      <trkpt lat="42.49134" lon="2.23898">
        <ele>1325</ele>
        <time>2019-04-14T13:01:10Z</time>
      </trkpt>
      <trkpt lat="42.49143" lon="2.239">
        <ele>1323</ele>
        <time>2019-04-14T13:01:26Z</time>
      </trkpt>
      <trkpt lat="42.49152" lon="2.23896">
        <ele>1320</ele>
        <time>2019-04-14T13:01:40Z</time>
      </trkpt>
      <trkpt lat="42.49161" lon="2.23902">
        <ele>1321</ele>
        <time>2019-04-14T13:01:49Z</time>
      </trkpt>
      <trkpt lat="42.4917" lon="2.23897">
        <ele>1317</ele>
        <time>2019-04-14T13:01:54Z</time>
      </trkpt>
      <trkpt lat="42.49179" lon="2.23899">
        <ele>1317</ele>
        <time>2019-04-14T13:01:59Z</time>
      </trkpt>
      <trkpt lat="42.49184" lon="2.23911">
        <ele>1315</ele>
        <time>2019-04-14T13:02:10Z</time>
      </trkpt>
      <trkpt lat="42.49193" lon="2.23915">
        <ele>1311</ele>
        <time>2019-04-14T13:02:18Z</time>
      </trkpt>
      <trkpt lat="42.492" lon="2.23907">
        <ele>1310</ele>
        <time>2019-04-14T13:02:23Z</time>
      </trkpt>
      <trkpt lat="42.49209" lon="2.23903">
        <ele>1310</ele>
        <time>2019-04-14T13:02:33Z</time>
      </trkpt>
      <trkpt lat="42.49217" lon="2.23896">
        <ele>1311</ele>
        <time>2019-04-14T13:02:40Z</time>
      </trkpt>
      <trkpt lat="42.49226" lon="2.23893">
        <ele>1308</ele>
        <time>2019-04-14T13:02:53Z</time>
      </trkpt>
      <trkpt lat="42.49233" lon="2.23902">
        <ele>1305</ele>
        <time>2019-04-14T13:03:22Z</time>
      </trkpt>
      <trkpt lat="42.49243" lon="2.23901">
        <ele>1307</ele>
        <time>2019-04-14T13:03:34Z</time>
      </trkpt>
      <trkpt lat="42.49251" lon="2.23907">
        <ele>1300</ele>
        <time>2019-04-14T13:04:00Z</time>
      </trkpt>
      <trkpt lat="42.49259" lon="2.23914">
        <ele>1298</ele>
        <time>2019-04-14T13:04:21Z</time>
      </trkpt>
      <trkpt lat="42.49264" lon="2.23925">
        <ele>1298</ele>
        <time>2019-04-14T13:04:30Z</time>
      </trkpt>
      <trkpt lat="42.49275" lon="2.23927">
        <ele>1300</ele>
        <time>2019-04-14T13:04:37Z</time>
      </trkpt>
      <trkpt lat="42.49284" lon="2.23931">
        <ele>1298</ele>
        <time>2019-04-14T13:04:43Z</time>
      </trkpt>
      <trkpt lat="42.49294" lon="2.23933">
        <ele>1302</ele>
        <time>2019-04-14T13:04:50Z</time>
      </trkpt>
      <trkpt lat="42.49303" lon="2.2393">
        <ele>1299</ele>
        <time>2019-04-14T13:04:57Z</time>
      </trkpt>
      <trkpt lat="42.49313" lon="2.23931">
        <ele>1299</ele>
        <time>2019-04-14T13:05:07Z</time>
      </trkpt>
      <trkpt lat="42.49322" lon="2.23931">
        <ele>1293</ele>
        <time>2019-04-14T13:05:15Z</time>
      </trkpt>
      <trkpt lat="42.49332" lon="2.23925">
        <ele>1290</ele>
        <time>2019-04-14T13:05:21Z</time>
      </trkpt>
      <trkpt lat="42.49342" lon="2.23922">
        <ele>1289</ele>
        <time>2019-04-14T13:05:26Z</time>
      </trkpt>
      <trkpt lat="42.4935" lon="2.23916">
        <ele>1288</ele>
        <time>2019-04-14T13:05:34Z</time>
      </trkpt>
      <trkpt lat="42.49359" lon="2.2391">
        <ele>1284</ele>
        <time>2019-04-14T13:05:42Z</time>
      </trkpt>
      <trkpt lat="42.49367" lon="2.23904">
        <ele>1283</ele>
        <time>2019-04-14T13:05:48Z</time>
      </trkpt>
      <trkpt lat="42.49376" lon="2.23898">
        <ele>1281</ele>
        <time>2019-04-14T13:05:54Z</time>
      </trkpt>
      <trkpt lat="42.49387" lon="2.23898">
        <ele>1281</ele>
        <time>2019-04-14T13:06:00Z</time>
      </trkpt>
      <trkpt lat="42.49397" lon="2.23895">
        <ele>1280</ele>
        <time>2019-04-14T13:06:05Z</time>
      </trkpt>
      <trkpt lat="42.49403" lon="2.23885">
        <ele>1277</ele>
        <time>2019-04-14T13:06:14Z</time>
      </trkpt>
      <trkpt lat="42.49407" lon="2.23874">
        <ele>1267</ele>
        <time>2019-04-14T13:07:30Z</time>
      </trkpt>
      <trkpt lat="42.49415" lon="2.23866">
        <ele>1265</ele>
        <time>2019-04-14T13:07:39Z</time>
      </trkpt>
      <trkpt lat="42.4941" lon="2.23855">
        <ele>1265</ele>
        <time>2019-04-14T13:07:49Z</time>
      </trkpt>
      <trkpt lat="42.49413" lon="2.23842">
        <ele>1265</ele>
        <time>2019-04-14T13:07:54Z</time>
      </trkpt>
      <trkpt lat="42.4942" lon="2.23834">
        <ele>1265</ele>
        <time>2019-04-14T13:08:00Z</time>
      </trkpt>
      <trkpt lat="42.49428" lon="2.23826">
        <ele>1265</ele>
        <time>2019-04-14T13:08:07Z</time>
      </trkpt>
      <trkpt lat="42.49436" lon="2.23818">
        <ele>1265</ele>
        <time>2019-04-14T13:08:15Z</time>
      </trkpt>
      <trkpt lat="42.49445" lon="2.23815">
        <ele>1263</ele>
        <time>2019-04-14T13:08:23Z</time>
      </trkpt>
      <trkpt lat="42.49449" lon="2.23804">
        <ele>1262</ele>
        <time>2019-04-14T13:08:32Z</time>
      </trkpt>
      <trkpt lat="42.49456" lon="2.23795">
        <ele>1261</ele>
        <time>2019-04-14T13:08:46Z</time>
      </trkpt>
      <trkpt lat="42.49465" lon="2.23792">
        <ele>1260</ele>
        <time>2019-04-14T13:08:52Z</time>
      </trkpt>
      <trkpt lat="42.49473" lon="2.23787">
        <ele>1261</ele>
        <time>2019-04-14T13:09:00Z</time>
      </trkpt>
      <trkpt lat="42.49481" lon="2.2378">
        <ele>1258</ele>
        <time>2019-04-14T13:09:13Z</time>
      </trkpt>
      <trkpt lat="42.49486" lon="2.2377">
        <ele>1258</ele>
        <time>2019-04-14T13:09:20Z</time>
      </trkpt>
      <trkpt lat="42.49494" lon="2.23763">
        <ele>1258</ele>
        <time>2019-04-14T13:09:32Z</time>
      </trkpt>
      <trkpt lat="42.495" lon="2.23753">
        <ele>1259</ele>
        <time>2019-04-14T13:09:51Z</time>
      </trkpt>
      <trkpt lat="42.49509" lon="2.23751">
        <ele>1257</ele>
        <time>2019-04-14T13:10:04Z</time>
      </trkpt>
      <trkpt lat="42.49516" lon="2.23742">
        <ele>1255</ele>
        <time>2019-04-14T13:10:32Z</time>
      </trkpt>
      <trkpt lat="42.49527" lon="2.23737">
        <ele>1254</ele>
        <time>2019-04-14T13:10:56Z</time>
      </trkpt>
      <trkpt lat="42.49536" lon="2.23733">
        <ele>1253</ele>
        <time>2019-04-14T13:11:06Z</time>
      </trkpt>
      <trkpt lat="42.49538" lon="2.23718">
        <ele>1254</ele>
        <time>2019-04-14T13:11:30Z</time>
      </trkpt>
      <trkpt lat="42.49547" lon="2.23722">
        <ele>1253</ele>
        <time>2019-04-14T13:11:44Z</time>
      </trkpt>
      <trkpt lat="42.49558" lon="2.23725">
        <ele>1252</ele>
        <time>2019-04-14T13:11:54Z</time>
      </trkpt>
      <trkpt lat="42.49569" lon="2.23727">
        <ele>1253</ele>
        <time>2019-04-14T13:12:35Z</time>
      </trkpt>
      <trkpt lat="42.49579" lon="2.23725">
        <ele>1249</ele>
        <time>2019-04-14T13:12:45Z</time>
      </trkpt>
      <trkpt lat="42.49588" lon="2.23719">
        <ele>1251</ele>
        <time>2019-04-14T13:12:58Z</time>
      </trkpt>
      <trkpt lat="42.49598" lon="2.23714">
        <ele>1249</ele>
        <time>2019-04-14T13:13:14Z</time>
      </trkpt>
      <trkpt lat="42.49607" lon="2.23711">
        <ele>1248</ele>
        <time>2019-04-14T13:13:22Z</time>
      </trkpt>
      <trkpt lat="42.49616" lon="2.23708">
        <ele>1247</ele>
        <time>2019-04-14T13:13:32Z</time>
      </trkpt>
      <trkpt lat="42.49628" lon="2.23706">
        <ele>1245</ele>
        <time>2019-04-14T13:13:37Z</time>
      </trkpt>
      <trkpt lat="42.49639" lon="2.23702">
        <ele>1244</ele>
        <time>2019-04-14T13:13:45Z</time>
      </trkpt>
      <trkpt lat="42.49644" lon="2.2369">
        <ele>1244</ele>
        <time>2019-04-14T13:13:54Z</time>
      </trkpt>
      <trkpt lat="42.49652" lon="2.23682">
        <ele>1243</ele>
        <time>2019-04-14T13:14:02Z</time>
      </trkpt>
      <trkpt lat="42.49658" lon="2.23672">
        <ele>1242</ele>
        <time>2019-04-14T13:14:10Z</time>
      </trkpt>
      <trkpt lat="42.49666" lon="2.23667">
        <ele>1240</ele>
        <time>2019-04-14T13:14:24Z</time>
      </trkpt>
      <trkpt lat="42.49676" lon="2.23666">
        <ele>1237</ele>
        <time>2019-04-14T13:14:34Z</time>
      </trkpt>
      <trkpt lat="42.49684" lon="2.23662">
        <ele>1236</ele>
        <time>2019-04-14T13:14:42Z</time>
      </trkpt>
      <trkpt lat="42.49693" lon="2.23658">
        <ele>1235</ele>
        <time>2019-04-14T13:14:48Z</time>
      </trkpt>
      <trkpt lat="42.49703" lon="2.23657">
        <ele>1234</ele>
        <time>2019-04-14T13:14:55Z</time>
      </trkpt>
      <trkpt lat="42.49712" lon="2.23657">
        <ele>1232</ele>
        <time>2019-04-14T13:15:01Z</time>
      </trkpt>
      <trkpt lat="42.49722" lon="2.23653">
        <ele>1230</ele>
        <time>2019-04-14T13:15:09Z</time>
      </trkpt>
      <trkpt lat="42.49731" lon="2.2365">
        <ele>1229</ele>
        <time>2019-04-14T13:15:16Z</time>
      </trkpt>
      <trkpt lat="42.49742" lon="2.23651">
        <ele>1226</ele>
        <time>2019-04-14T13:15:24Z</time>
      </trkpt>
      <trkpt lat="42.49751" lon="2.23648">
        <ele>1226</ele>
        <time>2019-04-14T13:15:29Z</time>
      </trkpt>
      <trkpt lat="42.49762" lon="2.23649">
        <ele>1225</ele>
        <time>2019-04-14T13:15:35Z</time>
      </trkpt>
      <trkpt lat="42.49771" lon="2.23647">
        <ele>1221</ele>
        <time>2019-04-14T13:15:45Z</time>
      </trkpt>
      <trkpt lat="42.4978" lon="2.23646">
        <ele>1220</ele>
        <time>2019-04-14T13:15:55Z</time>
      </trkpt>
      <trkpt lat="42.49789" lon="2.23642">
        <ele>1217</ele>
        <time>2019-04-14T13:16:05Z</time>
      </trkpt>
      <trkpt lat="42.49799" lon="2.23639">
        <ele>1215</ele>
        <time>2019-04-14T13:16:11Z</time>
      </trkpt>
      <trkpt lat="42.49807" lon="2.23636">
        <ele>1213</ele>
        <time>2019-04-14T13:16:19Z</time>
      </trkpt>
      <trkpt lat="42.49813" lon="2.23626">
        <ele>1212</ele>
        <time>2019-04-14T13:16:29Z</time>
      </trkpt>
      <trkpt lat="42.49822" lon="2.23619">
        <ele>1211</ele>
        <time>2019-04-14T13:16:37Z</time>
      </trkpt>
      <trkpt lat="42.4983" lon="2.23613">
        <ele>1209</ele>
        <time>2019-04-14T13:16:45Z</time>
      </trkpt>
      <trkpt lat="42.49837" lon="2.23605">
        <ele>1206</ele>
        <time>2019-04-14T13:16:52Z</time>
      </trkpt>
      <trkpt lat="42.49844" lon="2.23595">
        <ele>1207</ele>
        <time>2019-04-14T13:17:03Z</time>
      </trkpt>
      <trkpt lat="42.49852" lon="2.23589">
        <ele>1205</ele>
        <time>2019-04-14T13:17:10Z</time>
      </trkpt>
      <trkpt lat="42.49861" lon="2.23584">
        <ele>1202</ele>
        <time>2019-04-14T13:17:17Z</time>
      </trkpt>
      <trkpt lat="42.49868" lon="2.23576">
        <ele>1201</ele>
        <time>2019-04-14T13:17:24Z</time>
      </trkpt>
      <trkpt lat="42.49875" lon="2.23566">
        <ele>1200</ele>
        <time>2019-04-14T13:17:33Z</time>
      </trkpt>
      <trkpt lat="42.49882" lon="2.23558">
        <ele>1198</ele>
        <time>2019-04-14T13:17:42Z</time>
      </trkpt>
      <trkpt lat="42.4989" lon="2.23548">
        <ele>1196</ele>
        <time>2019-04-14T13:17:51Z</time>
      </trkpt>
      <trkpt lat="42.49896" lon="2.23538">
        <ele>1195</ele>
        <time>2019-04-14T13:17:59Z</time>
      </trkpt>
      <trkpt lat="42.49903" lon="2.23529">
        <ele>1195</ele>
        <time>2019-04-14T13:18:05Z</time>
      </trkpt>
      <trkpt lat="42.49911" lon="2.23522">
        <ele>1194</ele>
        <time>2019-04-14T13:18:12Z</time>
      </trkpt>
      <trkpt lat="42.49919" lon="2.23517">
        <ele>1193</ele>
        <time>2019-04-14T13:18:19Z</time>
      </trkpt>
      <trkpt lat="42.49927" lon="2.23507">
        <ele>1191</ele>
        <time>2019-04-14T13:18:26Z</time>
      </trkpt>
      <trkpt lat="42.49933" lon="2.23495">
        <ele>1190</ele>
        <time>2019-04-14T13:18:32Z</time>
      </trkpt>
      <trkpt lat="42.49937" lon="2.23484">
        <ele>1189</ele>
        <time>2019-04-14T13:18:39Z</time>
      </trkpt>
      <trkpt lat="42.49942" lon="2.23474">
        <ele>1189</ele>
        <time>2019-04-14T13:18:46Z</time>
      </trkpt>
      <trkpt lat="42.4995" lon="2.23468">
        <ele>1188</ele>
        <time>2019-04-14T13:18:52Z</time>
      </trkpt>
      <trkpt lat="42.49956" lon="2.23459">
        <ele>1188</ele>
        <time>2019-04-14T13:19:02Z</time>
      </trkpt>
      <trkpt lat="42.49964" lon="2.23451">
        <ele>1187</ele>
        <time>2019-04-14T13:19:12Z</time>
      </trkpt>
      <trkpt lat="42.49973" lon="2.23449">
        <ele>1185</ele>
        <time>2019-04-14T13:19:20Z</time>
      </trkpt>
      <trkpt lat="42.49978" lon="2.23439">
        <ele>1183</ele>
        <time>2019-04-14T13:19:28Z</time>
      </trkpt>
      <trkpt lat="42.49986" lon="2.2343">
        <ele>1182</ele>
        <time>2019-04-14T13:19:36Z</time>
      </trkpt>
      <trkpt lat="42.49994" lon="2.23422">
        <ele>1181</ele>
        <time>2019-04-14T13:19:43Z</time>
      </trkpt>
      <trkpt lat="42.50002" lon="2.23416">
        <ele>1178</ele>
        <time>2019-04-14T13:19:51Z</time>
      </trkpt>
      <trkpt lat="42.5001" lon="2.23409">
        <ele>1176</ele>
        <time>2019-04-14T13:19:59Z</time>
      </trkpt>
      <trkpt lat="42.50018" lon="2.23403">
        <ele>1175</ele>
        <time>2019-04-14T13:20:09Z</time>
      </trkpt>
      <trkpt lat="42.50027" lon="2.23396">
        <ele>1174</ele>
        <time>2019-04-14T13:20:18Z</time>
      </trkpt>
      <trkpt lat="42.50034" lon="2.23387">
        <ele>1173</ele>
        <time>2019-04-14T13:20:29Z</time>
      </trkpt>
      <trkpt lat="42.50041" lon="2.23379">
        <ele>1172</ele>
        <time>2019-04-14T13:20:38Z</time>
      </trkpt>
      <trkpt lat="42.50046" lon="2.23369">
        <ele>1170</ele>
        <time>2019-04-14T13:20:45Z</time>
      </trkpt>
      <trkpt lat="42.50051" lon="2.23358">
        <ele>1169</ele>
        <time>2019-04-14T13:20:53Z</time>
      </trkpt>
      <trkpt lat="42.50051" lon="2.23345">
        <ele>1168</ele>
        <time>2019-04-14T13:20:59Z</time>
      </trkpt>
      <trkpt lat="42.50051" lon="2.23333">
        <ele>1168</ele>
        <time>2019-04-14T13:21:06Z</time>
      </trkpt>
      <trkpt lat="42.50054" lon="2.2332">
        <ele>1167</ele>
        <time>2019-04-14T13:21:14Z</time>
      </trkpt>
      <trkpt lat="42.5005" lon="2.23308">
        <ele>1166</ele>
        <time>2019-04-14T13:21:23Z</time>
      </trkpt>
      <trkpt lat="42.50046" lon="2.23297">
        <ele>1165</ele>
        <time>2019-04-14T13:21:30Z</time>
      </trkpt>
      <trkpt lat="42.50053" lon="2.23288">
        <ele>1165</ele>
        <time>2019-04-14T13:21:37Z</time>
      </trkpt>
      <trkpt lat="42.5006" lon="2.2328">
        <ele>1164</ele>
        <time>2019-04-14T13:21:43Z</time>
      </trkpt>
      <trkpt lat="42.50066" lon="2.2327">
        <ele>1164</ele>
        <time>2019-04-14T13:21:50Z</time>
      </trkpt>
      <trkpt lat="42.50075" lon="2.23267">
        <ele>1162</ele>
        <time>2019-04-14T13:22:04Z</time>
      </trkpt>
      <trkpt lat="42.50084" lon="2.23268">
        <ele>1161</ele>
        <time>2019-04-14T13:22:13Z</time>
      </trkpt>
      <trkpt lat="42.50094" lon="2.2327">
        <ele>1160</ele>
        <time>2019-04-14T13:22:20Z</time>
      </trkpt>
      <trkpt lat="42.50103" lon="2.23268">
        <ele>1159</ele>
        <time>2019-04-14T13:22:32Z</time>
      </trkpt>
      <trkpt lat="42.50109" lon="2.23259">
        <ele>1158</ele>
        <time>2019-04-14T13:22:39Z</time>
      </trkpt>
      <trkpt lat="42.50116" lon="2.23248">
        <ele>1157</ele>
        <time>2019-04-14T13:22:46Z</time>
      </trkpt>
      <trkpt lat="42.50125" lon="2.23242">
        <ele>1156</ele>
        <time>2019-04-14T13:22:53Z</time>
      </trkpt>
      <trkpt lat="42.5013" lon="2.23231">
        <ele>1156</ele>
        <time>2019-04-14T13:22:59Z</time>
      </trkpt>
      <trkpt lat="42.50135" lon="2.23219">
        <ele>1155</ele>
        <time>2019-04-14T13:23:07Z</time>
      </trkpt>
      <trkpt lat="42.50143" lon="2.23211">
        <ele>1153</ele>
        <time>2019-04-14T13:23:17Z</time>
      </trkpt>
      <trkpt lat="42.50146" lon="2.23199">
        <ele>1152</ele>
        <time>2019-04-14T13:23:28Z</time>
      </trkpt>
      <trkpt lat="42.50153" lon="2.23192">
        <ele>1151</ele>
        <time>2019-04-14T13:23:35Z</time>
      </trkpt>
      <trkpt lat="42.50155" lon="2.23179">
        <ele>1152</ele>
        <time>2019-04-14T13:23:43Z</time>
      </trkpt>
      <trkpt lat="42.50161" lon="2.23168">
        <ele>1151</ele>
        <time>2019-04-14T13:23:50Z</time>
      </trkpt>
      <trkpt lat="42.50168" lon="2.23158">
        <ele>1150</ele>
        <time>2019-04-14T13:23:58Z</time>
      </trkpt>
      <trkpt lat="42.50177" lon="2.23156">
        <ele>1147</ele>
        <time>2019-04-14T13:24:04Z</time>
      </trkpt>
      <trkpt lat="42.50184" lon="2.23147">
        <ele>1144</ele>
        <time>2019-04-14T13:24:28Z</time>
      </trkpt>
      <trkpt lat="42.50193" lon="2.23145">
        <ele>1140</ele>
        <time>2019-04-14T13:24:47Z</time>
      </trkpt>
      <trkpt lat="42.50202" lon="2.23149">
        <ele>1137</ele>
        <time>2019-04-14T13:25:06Z</time>
      </trkpt>
      <trkpt lat="42.50211" lon="2.23144">
        <ele>1136</ele>
        <time>2019-04-14T13:25:18Z</time>
      </trkpt>
      <trkpt lat="42.50219" lon="2.23151">
        <ele>1135</ele>
        <time>2019-04-14T13:25:30Z</time>
      </trkpt>
      <trkpt lat="42.50228" lon="2.23154">
        <ele>1134</ele>
        <time>2019-04-14T13:25:38Z</time>
      </trkpt>
      <trkpt lat="42.50234" lon="2.23146">
        <ele>1133</ele>
        <time>2019-04-14T13:26:03Z</time>
      </trkpt>
      <trkpt lat="42.5023" lon="2.23134">
        <ele>1132</ele>
        <time>2019-04-14T13:26:16Z</time>
      </trkpt>
      <trkpt lat="42.50237" lon="2.23126">
        <ele>1130</ele>
        <time>2019-04-14T13:26:27Z</time>
      </trkpt>
      <trkpt lat="42.50247" lon="2.23126">
        <ele>1129</ele>
        <time>2019-04-14T13:26:39Z</time>
      </trkpt>
      <trkpt lat="42.50252" lon="2.23116">
        <ele>1127</ele>
        <time>2019-04-14T13:26:50Z</time>
      </trkpt>
      <trkpt lat="42.50245" lon="2.23106">
        <ele>1125</ele>
        <time>2019-04-14T13:27:05Z</time>
      </trkpt>
      <trkpt lat="42.50244" lon="2.23094">
        <ele>1125</ele>
        <time>2019-04-14T13:27:15Z</time>
      </trkpt>
      <trkpt lat="42.50243" lon="2.23081">
        <ele>1126</ele>
        <time>2019-04-14T13:27:20Z</time>
      </trkpt>
      <trkpt lat="42.50249" lon="2.2307">
        <ele>1126</ele>
        <time>2019-04-14T13:27:36Z</time>
      </trkpt>
      <trkpt lat="42.50256" lon="2.23059">
        <ele>1126</ele>
        <time>2019-04-14T13:27:41Z</time>
      </trkpt>
      <trkpt lat="42.50264" lon="2.23051">
        <ele>1126</ele>
        <time>2019-04-14T13:27:47Z</time>
      </trkpt>
      <trkpt lat="42.50272" lon="2.23059">
        <ele>1125</ele>
        <time>2019-04-14T13:28:05Z</time>
      </trkpt>
      <trkpt lat="42.5028" lon="2.23052">
        <ele>1123</ele>
        <time>2019-04-14T13:28:26Z</time>
      </trkpt>
      <trkpt lat="42.50289" lon="2.2305">
        <ele>1123</ele>
        <time>2019-04-14T13:28:41Z</time>
      </trkpt>
      <trkpt lat="42.50287" lon="2.23063">
        <ele>1122</ele>
        <time>2019-04-14T13:29:07Z</time>
      </trkpt>
      <trkpt lat="42.50295" lon="2.23055">
        <ele>1114</ele>
        <time>2019-04-14T13:29:53Z</time>
      </trkpt>
      <trkpt lat="42.50305" lon="2.23062">
        <ele>1113</ele>
        <time>2019-04-14T13:30:08Z</time>
      </trkpt>
      <trkpt lat="42.50306" lon="2.23048">
        <ele>1111</ele>
        <time>2019-04-14T13:30:23Z</time>
      </trkpt>
      <trkpt lat="42.50309" lon="2.23036">
        <ele>1112</ele>
        <time>2019-04-14T13:30:30Z</time>
      </trkpt>
      <trkpt lat="42.50314" lon="2.23046">
        <ele>1113</ele>
        <time>2019-04-14T13:30:41Z</time>
      </trkpt>
      <trkpt lat="42.50329" lon="2.23046">
        <ele>1114</ele>
        <time>2019-04-14T13:30:53Z</time>
      </trkpt>
      <trkpt lat="42.50337" lon="2.23036">
        <ele>1112</ele>
        <time>2019-04-14T13:31:15Z</time>
      </trkpt>
      <trkpt lat="42.50347" lon="2.23036">
        <ele>1114</ele>
        <time>2019-04-14T13:31:24Z</time>
      </trkpt>
      <trkpt lat="42.50356" lon="2.2304">
        <ele>1114</ele>
        <time>2019-04-14T13:31:30Z</time>
      </trkpt>
      <trkpt lat="42.50363" lon="2.23031">
        <ele>1114</ele>
        <time>2019-04-14T13:31:36Z</time>
      </trkpt>
      <trkpt lat="42.50361" lon="2.23">
        <ele>1112</ele>
        <time>2019-04-14T13:31:43Z</time>
      </trkpt>
      <trkpt lat="42.50355" lon="2.22989">
        <ele>1113</ele>
        <time>2019-04-14T13:31:49Z</time>
      </trkpt>
      <trkpt lat="42.50356" lon="2.22976">
        <ele>1114</ele>
        <time>2019-04-14T13:32:01Z</time>
      </trkpt>
      <trkpt lat="42.50363" lon="2.22985">
        <ele>1115</ele>
        <time>2019-04-14T13:32:07Z</time>
      </trkpt>
      <trkpt lat="42.50377" lon="2.22994">
        <ele>1113</ele>
        <time>2019-04-14T13:32:17Z</time>
      </trkpt>
      <trkpt lat="42.50386" lon="2.22988">
        <ele>1113</ele>
        <time>2019-04-14T13:32:28Z</time>
      </trkpt>
      <trkpt lat="42.50391" lon="2.22976">
        <ele>1114</ele>
        <time>2019-04-14T13:32:38Z</time>
      </trkpt>
      <trkpt lat="42.50401" lon="2.22974">
        <ele>1114</ele>
        <time>2019-04-14T13:32:44Z</time>
      </trkpt>
      <trkpt lat="42.5041" lon="2.22974">
        <ele>1113</ele>
        <time>2019-04-14T13:32:50Z</time>
      </trkpt>
      <trkpt lat="42.50423" lon="2.22955">
        <ele>1115</ele>
        <time>2019-04-14T13:32:56Z</time>
      </trkpt>
      <trkpt lat="42.50423" lon="2.22978">
        <ele>1112</ele>
        <time>2019-04-14T13:33:14Z</time>
      </trkpt>
      <trkpt lat="42.50429" lon="2.22988">
        <ele>1109</ele>
        <time>2019-04-14T13:33:26Z</time>
      </trkpt>
      <trkpt lat="42.50426" lon="2.23001">
        <ele>1107</ele>
        <time>2019-04-14T13:33:37Z</time>
      </trkpt>
      <trkpt lat="42.50428" lon="2.23013">
        <ele>1108</ele>
        <time>2019-04-14T13:33:46Z</time>
      </trkpt>
      <trkpt lat="42.50429" lon="2.23025">
        <ele>1109</ele>
        <time>2019-04-14T13:33:59Z</time>
      </trkpt>
      <trkpt lat="42.50435" lon="2.23035">
        <ele>1103</ele>
        <time>2019-04-14T13:34:23Z</time>
      </trkpt>
      <trkpt lat="42.50444" lon="2.23035">
        <ele>1100</ele>
        <time>2019-04-14T13:34:33Z</time>
      </trkpt>
      <trkpt lat="42.50452" lon="2.23042">
        <ele>1098</ele>
        <time>2019-04-14T13:34:46Z</time>
      </trkpt>
      <trkpt lat="42.50458" lon="2.23052">
        <ele>1097</ele>
        <time>2019-04-14T13:35:01Z</time>
      </trkpt>
      <trkpt lat="42.50463" lon="2.23062">
        <ele>1096</ele>
        <time>2019-04-14T13:35:10Z</time>
      </trkpt>
      <trkpt lat="42.50472" lon="2.23057">
        <ele>1094</ele>
        <time>2019-04-14T13:35:27Z</time>
      </trkpt>
      <trkpt lat="42.5048" lon="2.23051">
        <ele>1092</ele>
        <time>2019-04-14T13:35:35Z</time>
      </trkpt>
      <trkpt lat="42.50488" lon="2.23042">
        <ele>1089</ele>
        <time>2019-04-14T13:35:45Z</time>
      </trkpt>
      <trkpt lat="42.50489" lon="2.2303">
        <ele>1091</ele>
        <time>2019-04-14T13:35:51Z</time>
      </trkpt>
      <trkpt lat="42.50492" lon="2.23018">
        <ele>1092</ele>
        <time>2019-04-14T13:36:02Z</time>
      </trkpt>
      <trkpt lat="42.50502" lon="2.23011">
        <ele>1091</ele>
        <time>2019-04-14T13:36:13Z</time>
      </trkpt>
      <trkpt lat="42.50493" lon="2.23002">
        <ele>1091</ele>
        <time>2019-04-14T13:36:25Z</time>
      </trkpt>
      <trkpt lat="42.50495" lon="2.22998">
        <ele>1091</ele>
        <time>2019-04-14T13:36:37Z</time>
      </trkpt>
      <trkpt lat="42.50504" lon="2.22993">
        <ele>1092</ele>
        <time>2019-04-14T13:36:45Z</time>
      </trkpt>
      <trkpt lat="42.50491" lon="2.23002">
        <ele>1091</ele>
        <time>2019-04-14T13:36:54Z</time>
      </trkpt>
      <trkpt lat="42.50494" lon="2.23005">
        <ele>1090</ele>
        <time>2019-04-14T13:37:08Z</time>
      </trkpt>
      <trkpt lat="42.50516" lon="2.22997">
        <ele>1090</ele>
        <time>2019-04-14T13:37:13Z</time>
      </trkpt>
      <trkpt lat="42.50524" lon="2.23009">
        <ele>1090</ele>
        <time>2019-04-14T13:37:21Z</time>
      </trkpt>
      <trkpt lat="42.50514" lon="2.23004">
        <ele>1090</ele>
        <time>2019-04-14T13:37:56Z</time>
      </trkpt>
      <trkpt lat="42.50513" lon="2.22991">
        <ele>1089</ele>
        <time>2019-04-14T13:38:18Z</time>
      </trkpt>
      <trkpt lat="42.50507" lon="2.23007">
        <ele>1090</ele>
        <time>2019-04-14T13:38:29Z</time>
      </trkpt>
      <trkpt lat="42.50515" lon="2.22998">
        <ele>1090</ele>
        <time>2019-04-14T13:38:41Z</time>
      </trkpt>
      <trkpt lat="42.50524" lon="2.22994">
        <ele>1090</ele>
        <time>2019-04-14T13:38:46Z</time>
      </trkpt>
      <trkpt lat="42.50533" lon="2.22991">
        <ele>1089</ele>
        <time>2019-04-14T13:38:53Z</time>
      </trkpt>
      <trkpt lat="42.50527" lon="2.23002">
        <ele>1091</ele>
        <time>2019-04-14T13:39:03Z</time>
      </trkpt>
      <trkpt lat="42.50519" lon="2.23009">
        <ele>1090</ele>
        <time>2019-04-14T13:39:18Z</time>
      </trkpt>
      <trkpt lat="42.50522" lon="2.23024">
        <ele>1088</ele>
        <time>2019-04-14T13:39:34Z</time>
      </trkpt>
      <trkpt lat="42.50514" lon="2.23032">
        <ele>1087</ele>
        <time>2019-04-14T13:39:42Z</time>
      </trkpt>
      <trkpt lat="42.50517" lon="2.23036">
        <ele>1086</ele>
        <time>2019-04-14T13:39:51Z</time>
      </trkpt>
      <trkpt lat="42.50531" lon="2.23041">
        <ele>1089</ele>
        <time>2019-04-14T13:39:59Z</time>
      </trkpt>
      <trkpt lat="42.5051" lon="2.23104">
        <ele>1089</ele>
        <time>2019-04-14T13:40:06Z</time>
      </trkpt>
      <trkpt lat="42.50506" lon="2.23116">
        <ele>1089</ele>
        <time>2019-04-14T13:40:11Z</time>
      </trkpt>
      <trkpt lat="42.50516" lon="2.23091">
        <ele>1091</ele>
        <time>2019-04-14T13:40:19Z</time>
      </trkpt>
      <trkpt lat="42.50506" lon="2.23106">
        <ele>1088</ele>
        <time>2019-04-14T13:40:28Z</time>
      </trkpt>
      <trkpt lat="42.50501" lon="2.23118">
        <ele>1091</ele>
        <time>2019-04-14T13:40:38Z</time>
      </trkpt>
      <trkpt lat="42.50508" lon="2.2311">
        <ele>1088</ele>
        <time>2019-04-14T13:40:47Z</time>
      </trkpt>
      <trkpt lat="42.50518" lon="2.23104">
        <ele>1082</ele>
        <time>2019-04-14T13:40:52Z</time>
      </trkpt>
      <trkpt lat="42.50512" lon="2.23089">
        <ele>1079</ele>
        <time>2019-04-14T13:41:22Z</time>
      </trkpt>
      <trkpt lat="42.50518" lon="2.23099">
        <ele>1077</ele>
        <time>2019-04-14T13:41:38Z</time>
      </trkpt>
      <trkpt lat="42.50518" lon="2.23113">
        <ele>1078</ele>
        <time>2019-04-14T13:41:49Z</time>
      </trkpt>
      <trkpt lat="42.50516" lon="2.23127">
        <ele>1080</ele>
        <time>2019-04-14T13:41:56Z</time>
      </trkpt>
      <trkpt lat="42.50505" lon="2.23152">
        <ele>1082</ele>
        <time>2019-04-14T13:42:04Z</time>
      </trkpt>
      <trkpt lat="42.50515" lon="2.23157">
        <ele>1085</ele>
        <time>2019-04-14T13:42:15Z</time>
      </trkpt>
      <trkpt lat="42.50523" lon="2.23147">
        <ele>1084</ele>
        <time>2019-04-14T13:42:28Z</time>
      </trkpt>
      <trkpt lat="42.50525" lon="2.23161">
        <ele>1081</ele>
        <time>2019-04-14T13:42:43Z</time>
      </trkpt>
      <trkpt lat="42.50541" lon="2.23156">
        <ele>1085</ele>
        <time>2019-04-14T13:42:51Z</time>
      </trkpt>
      <trkpt lat="42.5055" lon="2.23155">
        <ele>1086</ele>
        <time>2019-04-14T13:43:04Z</time>
      </trkpt>
      <trkpt lat="42.5056" lon="2.23155">
        <ele>1086</ele>
        <time>2019-04-14T13:43:17Z</time>
      </trkpt>
      <trkpt lat="42.50564" lon="2.23142">
        <ele>1085</ele>
        <time>2019-04-14T13:43:26Z</time>
      </trkpt>
      <trkpt lat="42.50542" lon="2.23077">
        <ele>1080</ele>
        <time>2019-04-14T13:43:52Z</time>
      </trkpt>
      <trkpt lat="42.50556" lon="2.23084">
        <ele>1085</ele>
        <time>2019-04-14T13:43:59Z</time>
      </trkpt>
      <trkpt lat="42.50558" lon="2.23072">
        <ele>1084</ele>
        <time>2019-04-14T13:44:12Z</time>
      </trkpt>
      <trkpt lat="42.50558" lon="2.23084">
        <ele>1085</ele>
        <time>2019-04-14T13:44:17Z</time>
      </trkpt>
      <trkpt lat="42.50548" lon="2.23126">
        <ele>1083</ele>
        <time>2019-04-14T13:44:23Z</time>
      </trkpt>
      <trkpt lat="42.50568" lon="2.23105">
        <ele>1083</ele>
        <time>2019-04-14T13:44:29Z</time>
      </trkpt>
      <trkpt lat="42.50556" lon="2.23111">
        <ele>1078</ele>
        <time>2019-04-14T13:44:34Z</time>
      </trkpt>
      <trkpt lat="42.50595" lon="2.23097">
        <ele>1081</ele>
        <time>2019-04-14T13:45:12Z</time>
      </trkpt>
      <trkpt lat="42.50594" lon="2.23099">
        <ele>1079</ele>
        <time>2019-04-14T13:45:22Z</time>
      </trkpt>
      <trkpt lat="42.50608" lon="2.23076">
        <ele>1076</ele>
        <time>2019-04-14T13:45:35Z</time>
      </trkpt>
      <trkpt lat="42.50625" lon="2.2305">
        <ele>1077</ele>
        <time>2019-04-14T13:45:40Z</time>
      </trkpt>
      <trkpt lat="42.50583" lon="2.23107">
        <ele>1076</ele>
        <time>2019-04-14T13:46:06Z</time>
      </trkpt>
      <trkpt lat="42.50623" lon="2.23062">
        <ele>1076</ele>
        <time>2019-04-14T13:46:18Z</time>
      </trkpt>
      <trkpt lat="42.5062" lon="2.23086">
        <ele>1077</ele>
        <time>2019-04-14T13:46:23Z</time>
      </trkpt>
      <trkpt lat="42.50604" lon="2.23113">
        <ele>1072</ele>
        <time>2019-04-14T13:46:30Z</time>
      </trkpt>
      <trkpt lat="42.50602" lon="2.23141">
        <ele>1075</ele>
        <time>2019-04-14T13:46:37Z</time>
      </trkpt>
      <trkpt lat="42.5061" lon="2.23133">
        <ele>1079</ele>
        <time>2019-04-14T13:46:45Z</time>
      </trkpt>
      <trkpt lat="42.50634" lon="2.23099">
        <ele>1079</ele>
        <time>2019-04-14T13:46:50Z</time>
      </trkpt>
      <trkpt lat="42.50653" lon="2.2308">
        <ele>1079</ele>
        <time>2019-04-14T13:46:58Z</time>
      </trkpt>
      <trkpt lat="42.50648" lon="2.23104">
        <ele>1081</ele>
        <time>2019-04-14T13:47:04Z</time>
      </trkpt>
      <trkpt lat="42.50643" lon="2.23115">
        <ele>1081</ele>
        <time>2019-04-14T13:47:09Z</time>
      </trkpt>
      <trkpt lat="42.50634" lon="2.23123">
        <ele>1077</ele>
        <time>2019-04-14T13:47:16Z</time>
      </trkpt>
      <trkpt lat="42.50631" lon="2.23135">
        <ele>1075</ele>
        <time>2019-04-14T13:47:31Z</time>
      </trkpt>
      <trkpt lat="42.50632" lon="2.23152">
        <ele>1077</ele>
        <time>2019-04-14T13:47:39Z</time>
      </trkpt>
      <trkpt lat="42.50623" lon="2.23178">
        <ele>1079</ele>
        <time>2019-04-14T13:47:45Z</time>
      </trkpt>
      <trkpt lat="42.50632" lon="2.2317">
        <ele>1088</ele>
        <time>2019-04-14T13:47:50Z</time>
      </trkpt>
      <trkpt lat="42.50653" lon="2.23144">
        <ele>1085</ele>
        <time>2019-04-14T13:47:58Z</time>
      </trkpt>
      <trkpt lat="42.5067" lon="2.23138">
        <ele>1075</ele>
        <time>2019-04-14T13:48:15Z</time>
      </trkpt>
      <trkpt lat="42.50681" lon="2.2314">
        <ele>1077</ele>
        <time>2019-04-14T13:48:20Z</time>
      </trkpt>
      <trkpt lat="42.50672" lon="2.23141">
        <ele>1077</ele>
        <time>2019-04-14T13:48:39Z</time>
      </trkpt>
      <trkpt lat="42.50682" lon="2.23131">
        <ele>1078</ele>
        <time>2019-04-14T13:48:54Z</time>
      </trkpt>
      <trkpt lat="42.50698" lon="2.23118">
        <ele>1071</ele>
        <time>2019-04-14T13:48:59Z</time>
      </trkpt>
      <trkpt lat="42.50692" lon="2.2313">
        <ele>1072</ele>
        <time>2019-04-14T13:49:14Z</time>
      </trkpt>
      <trkpt lat="42.50723" lon="2.23125">
        <ele>1080</ele>
        <time>2019-04-14T13:49:37Z</time>
      </trkpt>
      <trkpt lat="42.50722" lon="2.23112">
        <ele>1066</ele>
        <time>2019-04-14T13:49:55Z</time>
      </trkpt>
      <trkpt lat="42.50732" lon="2.23101">
        <ele>1058</ele>
        <time>2019-04-14T13:50:04Z</time>
      </trkpt>
      <trkpt lat="42.50741" lon="2.23093">
        <ele>1058</ele>
        <time>2019-04-14T13:50:09Z</time>
      </trkpt>
      <trkpt lat="42.50755" lon="2.23084">
        <ele>1053</ele>
        <time>2019-04-14T13:50:23Z</time>
      </trkpt>
      <trkpt lat="42.50751" lon="2.23072">
        <ele>1044</ele>
        <time>2019-04-14T13:51:12Z</time>
      </trkpt>
      <trkpt lat="42.50756" lon="2.2306">
        <ele>1038</ele>
        <time>2019-04-14T13:51:30Z</time>
      </trkpt>
      <trkpt lat="42.50753" lon="2.23046">
        <ele>1039</ele>
        <time>2019-04-14T13:51:40Z</time>
      </trkpt>
      <trkpt lat="42.50763" lon="2.23052">
        <ele>1036</ele>
        <time>2019-04-14T13:51:52Z</time>
      </trkpt>
      <trkpt lat="42.50772" lon="2.23051">
        <ele>1036</ele>
        <time>2019-04-14T13:52:05Z</time>
      </trkpt>
      <trkpt lat="42.50776" lon="2.2304">
        <ele>1036</ele>
        <time>2019-04-14T13:52:17Z</time>
      </trkpt>
      <trkpt lat="42.50773" lon="2.23028">
        <ele>1036</ele>
        <time>2019-04-14T13:52:24Z</time>
      </trkpt>
      <trkpt lat="42.50774" lon="2.23016">
        <ele>1037</ele>
        <time>2019-04-14T13:52:38Z</time>
      </trkpt>
      <trkpt lat="42.50783" lon="2.23024">
        <ele>1034</ele>
        <time>2019-04-14T13:52:58Z</time>
      </trkpt>
      <trkpt lat="42.50794" lon="2.23033">
        <ele>1033</ele>
        <time>2019-04-14T13:53:04Z</time>
      </trkpt>
      <trkpt lat="42.508" lon="2.2305">
        <ele>1033</ele>
        <time>2019-04-14T13:53:10Z</time>
      </trkpt>
      <trkpt lat="42.50814" lon="2.23048">
        <ele>1031</ele>
        <time>2019-04-14T13:53:16Z</time>
      </trkpt>
      <trkpt lat="42.50814" lon="2.23035">
        <ele>1033</ele>
        <time>2019-04-14T13:53:23Z</time>
      </trkpt>
      <trkpt lat="42.50801" lon="2.2301">
        <ele>1027</ele>
        <time>2019-04-14T13:53:30Z</time>
      </trkpt>
      <trkpt lat="42.50785" lon="2.22992">
        <ele>1025</ele>
        <time>2019-04-14T13:53:39Z</time>
      </trkpt>
      <trkpt lat="42.50794" lon="2.22977">
        <ele>1023</ele>
        <time>2019-04-14T13:53:51Z</time>
      </trkpt>
      <trkpt lat="42.50806" lon="2.22979">
        <ele>1022</ele>
        <time>2019-04-14T13:53:56Z</time>
      </trkpt>
      <trkpt lat="42.50816" lon="2.22978">
        <ele>1023</ele>
        <time>2019-04-14T13:54:01Z</time>
      </trkpt>
      <trkpt lat="42.50821" lon="2.22969">
        <ele>1021</ele>
        <time>2019-04-14T13:54:13Z</time>
      </trkpt>
      <trkpt lat="42.50823" lon="2.22954">
        <ele>1020</ele>
        <time>2019-04-14T13:54:18Z</time>
      </trkpt>
      <trkpt lat="42.5082" lon="2.22938">
        <ele>1018</ele>
        <time>2019-04-14T13:54:28Z</time>
      </trkpt>
      <trkpt lat="42.50828" lon="2.22933">
        <ele>1018</ele>
        <time>2019-04-14T13:54:36Z</time>
      </trkpt>
      <trkpt lat="42.50837" lon="2.22927">
        <ele>1019</ele>
        <time>2019-04-14T13:54:45Z</time>
      </trkpt>
      <trkpt lat="42.50848" lon="2.22931">
        <ele>1019</ele>
        <time>2019-04-14T13:54:50Z</time>
      </trkpt>
      <trkpt lat="42.50856" lon="2.22938">
        <ele>1020</ele>
        <time>2019-04-14T13:54:55Z</time>
      </trkpt>
      <trkpt lat="42.50856" lon="2.22928">
        <ele>1021</ele>
        <time>2019-04-14T13:55:27Z</time>
      </trkpt>
      <trkpt lat="42.50847" lon="2.22932">
        <ele>1020</ele>
        <time>2019-04-14T13:56:10Z</time>
      </trkpt>
      <trkpt lat="42.50851" lon="2.2292">
        <ele>1018</ele>
        <time>2019-04-14T13:56:31Z</time>
      </trkpt>
      <trkpt lat="42.50853" lon="2.22906">
        <ele>1017</ele>
        <time>2019-04-14T13:56:49Z</time>
      </trkpt>
      <trkpt lat="42.50863" lon="2.22888">
        <ele>1015</ele>
        <time>2019-04-14T13:57:02Z</time>
      </trkpt>
      <trkpt lat="42.50857" lon="2.22876">
        <ele>1013</ele>
        <time>2019-04-14T13:57:12Z</time>
      </trkpt>
      <trkpt lat="42.50855" lon="2.22862">
        <ele>1013</ele>
        <time>2019-04-14T13:57:18Z</time>
      </trkpt>
      <trkpt lat="42.50859" lon="2.22851">
        <ele>1011</ele>
        <time>2019-04-14T13:57:28Z</time>
      </trkpt>
      <trkpt lat="42.50858" lon="2.22838">
        <ele>1010</ele>
        <time>2019-04-14T13:57:36Z</time>
      </trkpt>
      <trkpt lat="42.50865" lon="2.22827">
        <ele>1012</ele>
        <time>2019-04-14T13:57:46Z</time>
      </trkpt>
      <trkpt lat="42.50856" lon="2.22821">
        <ele>1012</ele>
        <time>2019-04-14T13:58:04Z</time>
      </trkpt>
      <trkpt lat="42.50864" lon="2.22815">
        <ele>1011</ele>
        <time>2019-04-14T13:58:34Z</time>
      </trkpt>
      <trkpt lat="42.50868" lon="2.22803">
        <ele>1011</ele>
        <time>2019-04-14T13:58:47Z</time>
      </trkpt>
      <trkpt lat="42.50863" lon="2.22791">
        <ele>1010</ele>
        <time>2019-04-14T13:58:52Z</time>
      </trkpt>
      <trkpt lat="42.50866" lon="2.22781">
        <ele>1009</ele>
        <time>2019-04-14T13:59:06Z</time>
      </trkpt>
      <trkpt lat="42.50871" lon="2.2277">
        <ele>1013</ele>
        <time>2019-04-14T13:59:17Z</time>
      </trkpt>
      <trkpt lat="42.50873" lon="2.22756">
        <ele>1014</ele>
        <time>2019-04-14T13:59:55Z</time>
      </trkpt>
      <trkpt lat="42.50892" lon="2.22755">
        <ele>1015</ele>
        <time>2019-04-14T14:00:06Z</time>
      </trkpt>
      <trkpt lat="42.50885" lon="2.22745">
        <ele>1016</ele>
        <time>2019-04-14T14:00:15Z</time>
      </trkpt>
      <trkpt lat="42.5088" lon="2.22723">
        <ele>1016</ele>
        <time>2019-04-14T14:00:29Z</time>
      </trkpt>
      <trkpt lat="42.50889" lon="2.22714">
        <ele>1017</ele>
        <time>2019-04-14T14:00:34Z</time>
      </trkpt>
      <trkpt lat="42.50892" lon="2.22701">
        <ele>1017</ele>
        <time>2019-04-14T14:00:41Z</time>
      </trkpt>
      <trkpt lat="42.50887" lon="2.2269">
        <ele>1017</ele>
        <time>2019-04-14T14:00:54Z</time>
      </trkpt>
      <trkpt lat="42.50898" lon="2.22687">
        <ele>1017</ele>
        <time>2019-04-14T14:01:02Z</time>
      </trkpt>
      <trkpt lat="42.50904" lon="2.22678">
        <ele>1017</ele>
        <time>2019-04-14T14:01:08Z</time>
      </trkpt>
      <trkpt lat="42.5091" lon="2.22668">
        <ele>1017</ele>
        <time>2019-04-14T14:01:16Z</time>
      </trkpt>
      <trkpt lat="42.509" lon="2.22662">
        <ele>1018</ele>
        <time>2019-04-14T14:01:24Z</time>
      </trkpt>
      <trkpt lat="42.50893" lon="2.22654">
        <ele>1018</ele>
        <time>2019-04-14T14:01:30Z</time>
      </trkpt>
      <trkpt lat="42.50882" lon="2.2265">
        <ele>1018</ele>
        <time>2019-04-14T14:01:36Z</time>
      </trkpt>
      <trkpt lat="42.50878" lon="2.22638">
        <ele>1016</ele>
        <time>2019-04-14T14:01:43Z</time>
      </trkpt>
      <trkpt lat="42.50876" lon="2.22618">
        <ele>1012</ele>
        <time>2019-04-14T14:01:54Z</time>
      </trkpt>
      <trkpt lat="42.50887" lon="2.22618">
        <ele>1014</ele>
        <time>2019-04-14T14:02:00Z</time>
      </trkpt>
      <trkpt lat="42.50893" lon="2.22609">
        <ele>1017</ele>
        <time>2019-04-14T14:02:07Z</time>
      </trkpt>
      <trkpt lat="42.50889" lon="2.22598">
        <ele>1016</ele>
        <time>2019-04-14T14:02:13Z</time>
      </trkpt>
      <trkpt lat="42.50883" lon="2.22588">
        <ele>1011</ele>
        <time>2019-04-14T14:02:20Z</time>
      </trkpt>
      <trkpt lat="42.50878" lon="2.22577">
        <ele>1005</ele>
        <time>2019-04-14T14:02:26Z</time>
      </trkpt>
      <trkpt lat="42.50883" lon="2.22565">
        <ele>1013</ele>
        <time>2019-04-14T14:02:32Z</time>
      </trkpt>
      <trkpt lat="42.50892" lon="2.22563">
        <ele>1014</ele>
        <time>2019-04-14T14:02:39Z</time>
      </trkpt>
      <trkpt lat="42.509" lon="2.22557">
        <ele>1013</ele>
        <time>2019-04-14T14:02:49Z</time>
      </trkpt>
      <trkpt lat="42.50903" lon="2.22545">
        <ele>1016</ele>
        <time>2019-04-14T14:02:55Z</time>
      </trkpt>
      <trkpt lat="42.50899" lon="2.22533">
        <ele>1011</ele>
        <time>2019-04-14T14:03:03Z</time>
      </trkpt>
      <trkpt lat="42.50883" lon="2.2252">
        <ele>1013</ele>
        <time>2019-04-14T14:03:12Z</time>
      </trkpt>
      <trkpt lat="42.50866" lon="2.22494">
        <ele>1014</ele>
        <time>2019-04-14T14:03:20Z</time>
      </trkpt>
      <trkpt lat="42.50872" lon="2.22484">
        <ele>1016</ele>
        <time>2019-04-14T14:03:26Z</time>
      </trkpt>
      <trkpt lat="42.50884" lon="2.22481">
        <ele>1016</ele>
        <time>2019-04-14T14:03:31Z</time>
      </trkpt>
      <trkpt lat="42.50892" lon="2.22474">
        <ele>1017</ele>
        <time>2019-04-14T14:03:47Z</time>
      </trkpt>
      <trkpt lat="42.50899" lon="2.22465">
        <ele>1017</ele>
        <time>2019-04-14T14:03:54Z</time>
      </trkpt>
      <trkpt lat="42.50907" lon="2.22456">
        <ele>1015</ele>
        <time>2019-04-14T14:03:59Z</time>
      </trkpt>
      <trkpt lat="42.50934" lon="2.22447">
        <ele>1014</ele>
        <time>2019-04-14T14:04:12Z</time>
      </trkpt>
      <trkpt lat="42.50927" lon="2.22437">
        <ele>1013</ele>
        <time>2019-04-14T14:04:23Z</time>
      </trkpt>
      <trkpt lat="42.50913" lon="2.22437">
        <ele>1018</ele>
        <time>2019-04-14T14:04:38Z</time>
      </trkpt>
      <trkpt lat="42.50892" lon="2.22446">
        <ele>1019</ele>
        <time>2019-04-14T14:04:44Z</time>
      </trkpt>
      <trkpt lat="42.50901" lon="2.22437">
        <ele>1018</ele>
        <time>2019-04-14T14:04:51Z</time>
      </trkpt>
      <trkpt lat="42.50916" lon="2.2242">
        <ele>1016</ele>
        <time>2019-04-14T14:05:05Z</time>
      </trkpt>
      <trkpt lat="42.50925" lon="2.2242">
        <ele>1013</ele>
        <time>2019-04-14T14:05:13Z</time>
      </trkpt>
      <trkpt lat="42.50934" lon="2.22424">
        <ele>1013</ele>
        <time>2019-04-14T14:05:22Z</time>
      </trkpt>
      <trkpt lat="42.5094" lon="2.22435">
        <ele>1009</ele>
        <time>2019-04-14T14:05:35Z</time>
      </trkpt>
      <trkpt lat="42.50949" lon="2.22441">
        <ele>1005</ele>
        <time>2019-04-14T14:05:40Z</time>
      </trkpt>
      <trkpt lat="42.50955" lon="2.22451">
        <ele>1007</ele>
        <time>2019-04-14T14:05:48Z</time>
      </trkpt>
      <trkpt lat="42.50956" lon="2.22463">
        <ele>1006</ele>
        <time>2019-04-14T14:05:59Z</time>
      </trkpt>
      <trkpt lat="42.50965" lon="2.22464">
        <ele>1006</ele>
        <time>2019-04-14T14:06:29Z</time>
      </trkpt>
      <trkpt lat="42.50984" lon="2.22454">
        <ele>1008</ele>
        <time>2019-04-14T14:06:36Z</time>
      </trkpt>
      <trkpt lat="42.5102" lon="2.2242">
        <ele>1004</ele>
        <time>2019-04-14T14:06:42Z</time>
      </trkpt>
      <trkpt lat="42.51039" lon="2.22406">
        <ele>1012</ele>
        <time>2019-04-14T14:06:49Z</time>
      </trkpt>
      <trkpt lat="42.51048" lon="2.22401">
        <ele>1012</ele>
        <time>2019-04-14T14:06:55Z</time>
      </trkpt>
      <trkpt lat="42.51057" lon="2.224">
        <ele>1000</ele>
        <time>2019-04-14T14:07:08Z</time>
      </trkpt>
      <trkpt lat="42.51065" lon="2.22393">
        <ele>1003</ele>
        <time>2019-04-14T14:07:15Z</time>
      </trkpt>
      <trkpt lat="42.51063" lon="2.22381">
        <ele>1012</ele>
        <time>2019-04-14T14:07:21Z</time>
      </trkpt>
      <trkpt lat="42.51056" lon="2.22372">
        <ele>1012</ele>
        <time>2019-04-14T14:07:26Z</time>
      </trkpt>
      <trkpt lat="42.51046" lon="2.22365">
        <ele>1012</ele>
        <time>2019-04-14T14:07:31Z</time>
      </trkpt>
      <trkpt lat="42.51063" lon="2.22376">
        <ele>1005</ele>
        <time>2019-04-14T14:07:54Z</time>
      </trkpt>
      <trkpt lat="42.51069" lon="2.22366">
        <ele>1007</ele>
        <time>2019-04-14T14:08:03Z</time>
      </trkpt>
      <trkpt lat="42.51073" lon="2.22352">
        <ele>1007</ele>
        <time>2019-04-14T14:08:14Z</time>
      </trkpt>
      <trkpt lat="42.51066" lon="2.22344">
        <ele>1011</ele>
        <time>2019-04-14T14:08:29Z</time>
      </trkpt>
      <trkpt lat="42.51061" lon="2.22352">
        <ele>1010</ele>
        <time>2019-04-14T14:08:45Z</time>
      </trkpt>
      <trkpt lat="42.51076" lon="2.22374">
        <ele>1005</ele>
        <time>2019-04-14T14:08:52Z</time>
      </trkpt>
      <trkpt lat="42.51101" lon="2.22395">
        <ele>1002</ele>
        <time>2019-04-14T14:08:59Z</time>
      </trkpt>
      <trkpt lat="42.51109" lon="2.224">
        <ele>997</ele>
        <time>2019-04-14T14:09:11Z</time>
      </trkpt>
      <trkpt lat="42.51119" lon="2.224">
        <ele>996</ele>
        <time>2019-04-14T14:09:19Z</time>
      </trkpt>
      <trkpt lat="42.51128" lon="2.224">
        <ele>996</ele>
        <time>2019-04-14T14:09:25Z</time>
      </trkpt>
      <trkpt lat="42.51138" lon="2.22399">
        <ele>996</ele>
        <time>2019-04-14T14:09:34Z</time>
      </trkpt>
      <trkpt lat="42.51153" lon="2.22392">
        <ele>996</ele>
        <time>2019-04-14T14:09:41Z</time>
      </trkpt>
      <trkpt lat="42.51165" lon="2.22386">
        <ele>998</ele>
        <time>2019-04-14T14:09:55Z</time>
      </trkpt>
      <trkpt lat="42.51185" lon="2.22487">
        <ele>997</ele>
        <time>2019-04-14T14:10:37Z</time>
      </trkpt>
      <trkpt lat="42.51198" lon="2.22466">
        <ele>992</ele>
        <time>2019-04-14T14:10:46Z</time>
      </trkpt>
      <trkpt lat="42.51205" lon="2.22422">
        <ele>988</ele>
        <time>2019-04-14T14:10:51Z</time>
      </trkpt>
      <trkpt lat="42.51216" lon="2.22416">
        <ele>993</ele>
        <time>2019-04-14T14:11:00Z</time>
      </trkpt>
      <trkpt lat="42.51227" lon="2.22415">
        <ele>995</ele>
        <time>2019-04-14T14:11:06Z</time>
      </trkpt>
      <trkpt lat="42.51234" lon="2.22407">
        <ele>995</ele>
        <time>2019-04-14T14:11:11Z</time>
      </trkpt>
      <trkpt lat="42.51254" lon="2.22402">
        <ele>988</ele>
        <time>2019-04-14T14:12:03Z</time>
      </trkpt>
      <trkpt lat="42.51246" lon="2.22417">
        <ele>990</ele>
        <time>2019-04-14T14:12:37Z</time>
      </trkpt>
      <trkpt lat="42.51239" lon="2.22404">
        <ele>995</ele>
        <time>2019-04-14T14:13:02Z</time>
      </trkpt>
      <trkpt lat="42.51489" lon="2.22484">
        <ele>1114</ele>
        <time>2019-04-14T14:17:06Z</time>
      </trkpt>
      <trkpt lat="42.51482" lon="2.22494">
        <ele>1155</ele>
        <time>2019-04-14T14:17:24Z</time>
      </trkpt>
      <trkpt lat="42.51525" lon="2.22384">
        <ele>1154</ele>
        <time>2019-04-14T14:19:02Z</time>
      </trkpt>
      <trkpt lat="42.51457" lon="2.22385">
        <ele>988</ele>
        <time>2019-04-14T14:19:11Z</time>
      </trkpt>
      <trkpt lat="42.5144" lon="2.2237">
        <ele>978</ele>
        <time>2019-04-14T14:19:20Z</time>
      </trkpt>
      <trkpt lat="42.51432" lon="2.22362">
        <ele>984</ele>
        <time>2019-04-14T14:19:27Z</time>
      </trkpt>
      <trkpt lat="42.51426" lon="2.22352">
        <ele>998</ele>
        <time>2019-04-14T14:19:36Z</time>
      </trkpt>
      <trkpt lat="42.51407" lon="2.22333">
        <ele>1026</ele>
        <time>2019-04-14T14:19:44Z</time>
      </trkpt>
      <trkpt lat="42.51402" lon="2.22321">
        <ele>1020</ele>
        <time>2019-04-14T14:20:04Z</time>
      </trkpt>
      <trkpt lat="42.51401" lon="2.22308">
        <ele>1028</ele>
        <time>2019-04-14T14:20:12Z</time>
      </trkpt>
      <trkpt lat="42.514" lon="2.22295">
        <ele>1028</ele>
        <time>2019-04-14T14:20:20Z</time>
      </trkpt>
      <trkpt lat="42.51406" lon="2.22285">
        <ele>1014</ele>
        <time>2019-04-14T14:20:27Z</time>
      </trkpt>
      <trkpt lat="42.514" lon="2.22275">
        <ele>1017</ele>
        <time>2019-04-14T14:20:32Z</time>
      </trkpt>
      <trkpt lat="42.51396" lon="2.22263">
        <ele>1022</ele>
        <time>2019-04-14T14:20:39Z</time>
      </trkpt>
      <trkpt lat="42.51404" lon="2.22255">
        <ele>1020</ele>
        <time>2019-04-14T14:20:46Z</time>
      </trkpt>
      <trkpt lat="42.51408" lon="2.22244">
        <ele>1019</ele>
        <time>2019-04-14T14:20:53Z</time>
      </trkpt>
      <trkpt lat="42.51416" lon="2.22237">
        <ele>1017</ele>
        <time>2019-04-14T14:21:00Z</time>
      </trkpt>
      <trkpt lat="42.51425" lon="2.22233">
        <ele>1017</ele>
        <time>2019-04-14T14:21:06Z</time>
      </trkpt>
      <trkpt lat="42.51423" lon="2.22217">
        <ele>1024</ele>
        <time>2019-04-14T14:21:19Z</time>
      </trkpt>
      <trkpt lat="42.51431" lon="2.22205">
        <ele>1030</ele>
        <time>2019-04-14T14:21:35Z</time>
      </trkpt>
      <trkpt lat="42.51446" lon="2.222">
        <ele>1020</ele>
        <time>2019-04-14T14:21:47Z</time>
      </trkpt>
      <trkpt lat="42.51455" lon="2.22202">
        <ele>1016</ele>
        <time>2019-04-14T14:22:02Z</time>
      </trkpt>
      <trkpt lat="42.51464" lon="2.22203">
        <ele>1020</ele>
        <time>2019-04-14T14:22:08Z</time>
      </trkpt>
      <trkpt lat="42.51474" lon="2.22207">
        <ele>1016</ele>
        <time>2019-04-14T14:22:18Z</time>
      </trkpt>
      <trkpt lat="42.51482" lon="2.22212">
        <ele>1014</ele>
        <time>2019-04-14T14:22:27Z</time>
      </trkpt>
      <trkpt lat="42.51481" lon="2.22224">
        <ele>1018</ele>
        <time>2019-04-14T14:22:42Z</time>
      </trkpt>
      <trkpt lat="42.51489" lon="2.22214">
        <ele>1010</ele>
        <time>2019-04-14T14:22:53Z</time>
      </trkpt>
      <trkpt lat="42.51498" lon="2.22208">
        <ele>1011</ele>
        <time>2019-04-14T14:23:02Z</time>
      </trkpt>
      <trkpt lat="42.51503" lon="2.22198">
        <ele>1014</ele>
        <time>2019-04-14T14:23:23Z</time>
      </trkpt>
      <trkpt lat="42.51513" lon="2.22199">
        <ele>1012</ele>
        <time>2019-04-14T14:23:34Z</time>
      </trkpt>
      <trkpt lat="42.5152" lon="2.22207">
        <ele>1005</ele>
        <time>2019-04-14T14:24:19Z</time>
      </trkpt>
      <trkpt lat="42.5153" lon="2.2221">
        <ele>1004</ele>
        <time>2019-04-14T14:24:29Z</time>
      </trkpt>
      <trkpt lat="42.51539" lon="2.2221">
        <ele>1002</ele>
        <time>2019-04-14T14:24:38Z</time>
      </trkpt>
      <trkpt lat="42.51549" lon="2.22208">
        <ele>1000</ele>
        <time>2019-04-14T14:24:46Z</time>
      </trkpt>
      <trkpt lat="42.51557" lon="2.22201">
        <ele>1001</ele>
        <time>2019-04-14T14:24:53Z</time>
      </trkpt>
      <trkpt lat="42.51566" lon="2.22201">
        <ele>1001</ele>
        <time>2019-04-14T14:25:00Z</time>
      </trkpt>
      <trkpt lat="42.51575" lon="2.22203">
        <ele>1000</ele>
        <time>2019-04-14T14:25:07Z</time>
      </trkpt>
      <trkpt lat="42.51585" lon="2.22203">
        <ele>1001</ele>
        <time>2019-04-14T14:25:41Z</time>
      </trkpt>
      <trkpt lat="42.51594" lon="2.22201">
        <ele>998</ele>
        <time>2019-04-14T14:25:53Z</time>
      </trkpt>
      <trkpt lat="42.51602" lon="2.22196">
        <ele>998</ele>
        <time>2019-04-14T14:26:04Z</time>
      </trkpt>
      <trkpt lat="42.51611" lon="2.222">
        <ele>1000</ele>
        <time>2019-04-14T14:27:11Z</time>
      </trkpt>
      <trkpt lat="42.51617" lon="2.22213">
        <ele>999</ele>
        <time>2019-04-14T14:27:25Z</time>
      </trkpt>
      <trkpt lat="42.51624" lon="2.22204">
        <ele>1000</ele>
        <time>2019-04-14T14:28:00Z</time>
      </trkpt>
      <trkpt lat="42.51629" lon="2.22202">
        <ele>999</ele>
        <time>2019-04-14T14:28:45Z</time>
      </trkpt>
      <trkpt lat="42.5162" lon="2.22214">
        <ele>999</ele>
        <time>2019-04-14T14:30:49Z</time>
      </trkpt>
      <trkpt lat="42.51629" lon="2.2221">
        <ele>998</ele>
        <time>2019-04-14T14:32:44Z</time>
      </trkpt>
      <trkpt lat="42.51638" lon="2.22206">
        <ele>998</ele>
        <time>2019-04-14T14:32:55Z</time>
      </trkpt>
      <trkpt lat="42.51649" lon="2.22202">
        <ele>999</ele>
        <time>2019-04-14T14:33:01Z</time>
      </trkpt>
      <trkpt lat="42.51658" lon="2.22197">
        <ele>1000</ele>
        <time>2019-04-14T14:33:20Z</time>
      </trkpt>
      <trkpt lat="42.51669" lon="2.22198">
        <ele>999</ele>
        <time>2019-04-14T14:33:26Z</time>
      </trkpt>
      <trkpt lat="42.51682" lon="2.22204">
        <ele>998</ele>
        <time>2019-04-14T14:33:34Z</time>
      </trkpt>
      <trkpt lat="42.51693" lon="2.22209">
        <ele>997</ele>
        <time>2019-04-14T14:33:41Z</time>
      </trkpt>
      <trkpt lat="42.51685" lon="2.22204">
        <ele>997</ele>
        <time>2019-04-14T14:33:46Z</time>
      </trkpt>
      <trkpt lat="42.51691" lon="2.22193">
        <ele>996</ele>
        <time>2019-04-14T14:34:06Z</time>
      </trkpt>
      <trkpt lat="42.51701" lon="2.22193">
        <ele>995</ele>
        <time>2019-04-14T14:34:14Z</time>
      </trkpt>
      <trkpt lat="42.5171" lon="2.22195">
        <ele>995</ele>
        <time>2019-04-14T14:34:20Z</time>
      </trkpt>
      <trkpt lat="42.51714" lon="2.22183">
        <ele>996</ele>
        <time>2019-04-14T14:34:31Z</time>
      </trkpt>
      <trkpt lat="42.51721" lon="2.22167">
        <ele>996</ele>
        <time>2019-04-14T14:34:40Z</time>
      </trkpt>
      <trkpt lat="42.51726" lon="2.22156">
        <ele>995</ele>
        <time>2019-04-14T14:34:48Z</time>
      </trkpt>
      <trkpt lat="42.51733" lon="2.22146">
        <ele>996</ele>
        <time>2019-04-14T14:34:54Z</time>
      </trkpt>
      <trkpt lat="42.51742" lon="2.2214">
        <ele>996</ele>
        <time>2019-04-14T14:35:03Z</time>
      </trkpt>
      <trkpt lat="42.51749" lon="2.2213">
        <ele>996</ele>
        <time>2019-04-14T14:35:10Z</time>
      </trkpt>
      <trkpt lat="42.51755" lon="2.22121">
        <ele>996</ele>
        <time>2019-04-14T14:35:17Z</time>
      </trkpt>
      <trkpt lat="42.51761" lon="2.22108">
        <ele>997</ele>
        <time>2019-04-14T14:35:23Z</time>
      </trkpt>
      <trkpt lat="42.51768" lon="2.221">
        <ele>998</ele>
        <time>2019-04-14T14:35:34Z</time>
      </trkpt>
      <trkpt lat="42.51777" lon="2.22089">
        <ele>1001</ele>
        <time>2019-04-14T14:35:49Z</time>
      </trkpt>
      <trkpt lat="42.51785" lon="2.22084">
        <ele>1000</ele>
        <time>2019-04-14T14:35:56Z</time>
      </trkpt>
      <trkpt lat="42.51794" lon="2.22083">
        <ele>1001</ele>
        <time>2019-04-14T14:36:15Z</time>
      </trkpt>
      <trkpt lat="42.51802" lon="2.2209">
        <ele>1001</ele>
        <time>2019-04-14T14:36:26Z</time>
      </trkpt>
      <trkpt lat="42.51811" lon="2.22095">
        <ele>1001</ele>
        <time>2019-04-14T14:36:36Z</time>
      </trkpt>
      <trkpt lat="42.51817" lon="2.22086">
        <ele>1001</ele>
        <time>2019-04-14T14:36:43Z</time>
      </trkpt>
      <trkpt lat="42.51827" lon="2.22083">
        <ele>1001</ele>
        <time>2019-04-14T14:36:57Z</time>
      </trkpt>
      <trkpt lat="42.51834" lon="2.22075">
        <ele>1000</ele>
        <time>2019-04-14T14:37:08Z</time>
      </trkpt>
      <trkpt lat="42.51843" lon="2.22072">
        <ele>1000</ele>
        <time>2019-04-14T14:37:14Z</time>
      </trkpt>
      <trkpt lat="42.51847" lon="2.22096">
        <ele>1000</ele>
        <time>2019-04-14T14:37:23Z</time>
      </trkpt>
      <trkpt lat="42.51864" lon="2.22095">
        <ele>1002</ele>
        <time>2019-04-14T14:37:43Z</time>
      </trkpt>
      <trkpt lat="42.5187" lon="2.22105">
        <ele>1002</ele>
        <time>2019-04-14T14:37:49Z</time>
      </trkpt>
      <trkpt lat="42.51879" lon="2.22108">
        <ele>1002</ele>
        <time>2019-04-14T14:37:58Z</time>
      </trkpt>
      <trkpt lat="42.51888" lon="2.22104">
        <ele>1003</ele>
        <time>2019-04-14T14:38:08Z</time>
      </trkpt>
      <trkpt lat="42.51904" lon="2.22101">
        <ele>1003</ele>
        <time>2019-04-14T14:38:22Z</time>
      </trkpt>
      <trkpt lat="42.51911" lon="2.2211">
        <ele>1003</ele>
        <time>2019-04-14T14:38:27Z</time>
      </trkpt>
      <trkpt lat="42.5192" lon="2.22107">
        <ele>1003</ele>
        <time>2019-04-14T14:38:33Z</time>
      </trkpt>
      <trkpt lat="42.51929" lon="2.221">
        <ele>1003</ele>
        <time>2019-04-14T14:38:41Z</time>
      </trkpt>
      <trkpt lat="42.51939" lon="2.221">
        <ele>1003</ele>
        <time>2019-04-14T14:38:55Z</time>
      </trkpt>
      <trkpt lat="42.51948" lon="2.221">
        <ele>1002</ele>
        <time>2019-04-14T14:39:04Z</time>
      </trkpt>
      <trkpt lat="42.51956" lon="2.22119">
        <ele>1002</ele>
        <time>2019-04-14T14:39:12Z</time>
      </trkpt>
      <trkpt lat="42.51965" lon="2.22108">
        <ele>1002</ele>
        <time>2019-04-14T14:39:19Z</time>
      </trkpt>
      <trkpt lat="42.51971" lon="2.22098">
        <ele>1002</ele>
        <time>2019-04-14T14:39:26Z</time>
      </trkpt>
      <trkpt lat="42.5198" lon="2.22093">
        <ele>1002</ele>
        <time>2019-04-14T14:39:33Z</time>
      </trkpt>
      <trkpt lat="42.51994" lon="2.22057">
        <ele>995</ele>
        <time>2019-04-14T14:39:47Z</time>
      </trkpt>
      <trkpt lat="42.52002" lon="2.22052">
        <ele>1003</ele>
        <time>2019-04-14T14:40:03Z</time>
      </trkpt>
      <trkpt lat="42.52003" lon="2.2204">
        <ele>1001</ele>
        <time>2019-04-14T14:40:12Z</time>
      </trkpt>
      <trkpt lat="42.52001" lon="2.22028">
        <ele>1002</ele>
        <time>2019-04-14T14:40:20Z</time>
      </trkpt>
      <trkpt lat="42.51998" lon="2.22015">
        <ele>1003</ele>
        <time>2019-04-14T14:40:27Z</time>
      </trkpt>
      <trkpt lat="42.51996" lon="2.22003">
        <ele>1004</ele>
        <time>2019-04-14T14:40:36Z</time>
      </trkpt>
      <trkpt lat="42.51994" lon="2.2199">
        <ele>1003</ele>
        <time>2019-04-14T14:40:44Z</time>
      </trkpt>
      <trkpt lat="42.51998" lon="2.21977">
        <ele>1002</ele>
        <time>2019-04-14T14:40:52Z</time>
      </trkpt>
      <trkpt lat="42.51991" lon="2.21967">
        <ele>1001</ele>
        <time>2019-04-14T14:40:59Z</time>
      </trkpt>
      <trkpt lat="42.51983" lon="2.21959">
        <ele>1001</ele>
        <time>2019-04-14T14:41:04Z</time>
      </trkpt>
      <trkpt lat="42.51974" lon="2.21949">
        <ele>1001</ele>
        <time>2019-04-14T14:41:14Z</time>
      </trkpt>
      <trkpt lat="42.51967" lon="2.2194">
        <ele>1001</ele>
        <time>2019-04-14T14:41:21Z</time>
      </trkpt>
      <trkpt lat="42.51964" lon="2.21927">
        <ele>1001</ele>
        <time>2019-04-14T14:41:29Z</time>
      </trkpt>
      <trkpt lat="42.51964" lon="2.21913">
        <ele>1000</ele>
        <time>2019-04-14T14:41:37Z</time>
      </trkpt>
      <trkpt lat="42.51969" lon="2.21903">
        <ele>1000</ele>
        <time>2019-04-14T14:41:45Z</time>
      </trkpt>
      <trkpt lat="42.51973" lon="2.21891">
        <ele>999</ele>
        <time>2019-04-14T14:41:53Z</time>
      </trkpt>
      <trkpt lat="42.51969" lon="2.2188">
        <ele>999</ele>
        <time>2019-04-14T14:42:00Z</time>
      </trkpt>
      <trkpt lat="42.51969" lon="2.21867">
        <ele>1000</ele>
        <time>2019-04-14T14:42:10Z</time>
      </trkpt>
      <trkpt lat="42.51964" lon="2.21855">
        <ele>999</ele>
        <time>2019-04-14T14:42:21Z</time>
      </trkpt>
      <trkpt lat="42.51963" lon="2.21842">
        <ele>1000</ele>
        <time>2019-04-14T14:42:30Z</time>
      </trkpt>
      <trkpt lat="42.51971" lon="2.21835">
        <ele>1001</ele>
        <time>2019-04-14T14:43:07Z</time>
      </trkpt>
      <trkpt lat="42.51962" lon="2.21837">
        <ele>1000</ele>
        <time>2019-04-14T14:43:23Z</time>
      </trkpt>
      <trkpt lat="42.51963" lon="2.21849">
        <ele>997</ele>
        <time>2019-04-14T14:44:57Z</time>
      </trkpt>
      <trkpt lat="42.51965" lon="2.21861">
        <ele>998</ele>
        <time>2019-04-14T14:45:11Z</time>
      </trkpt>
      <trkpt lat="42.51973" lon="2.21867">
        <ele>996</ele>
        <time>2019-04-14T14:45:22Z</time>
      </trkpt>
      <trkpt lat="42.5198" lon="2.21878">
        <ele>994</ele>
        <time>2019-04-14T14:45:42Z</time>
      </trkpt>
      <trkpt lat="42.51988" lon="2.21874">
        <ele>993</ele>
        <time>2019-04-14T14:45:57Z</time>
      </trkpt>
      <trkpt lat="42.51991" lon="2.21861">
        <ele>993</ele>
        <time>2019-04-14T14:46:12Z</time>
      </trkpt>
      <trkpt lat="42.51999" lon="2.21852">
        <ele>988</ele>
        <time>2019-04-14T14:46:57Z</time>
      </trkpt>
      <trkpt lat="42.52002" lon="2.21864">
        <ele>982</ele>
        <time>2019-04-14T14:47:16Z</time>
      </trkpt>
      <trkpt lat="42.52008" lon="2.21873">
        <ele>979</ele>
        <time>2019-04-14T14:47:35Z</time>
      </trkpt>
      <trkpt lat="42.52013" lon="2.21861">
        <ele>978</ele>
        <time>2019-04-14T14:47:43Z</time>
      </trkpt>
      <trkpt lat="42.52017" lon="2.2185">
        <ele>978</ele>
        <time>2019-04-14T14:47:53Z</time>
      </trkpt>
      <trkpt lat="42.52017" lon="2.21862">
        <ele>973</ele>
        <time>2019-04-14T14:48:07Z</time>
      </trkpt>
      <trkpt lat="42.5202" lon="2.21874">
        <ele>970</ele>
        <time>2019-04-14T14:48:19Z</time>
      </trkpt>
      <trkpt lat="42.52026" lon="2.21864">
        <ele>968</ele>
        <time>2019-04-14T14:48:28Z</time>
      </trkpt>
      <trkpt lat="42.52026" lon="2.21852">
        <ele>966</ele>
        <time>2019-04-14T14:48:42Z</time>
      </trkpt>
      <trkpt lat="42.52035" lon="2.21855">
        <ele>963</ele>
        <time>2019-04-14T14:49:04Z</time>
      </trkpt>
      <trkpt lat="42.52043" lon="2.21861">
        <ele>957</ele>
        <time>2019-04-14T14:49:26Z</time>
      </trkpt>
      <trkpt lat="42.52046" lon="2.21847">
        <ele>954</ele>
        <time>2019-04-14T14:49:43Z</time>
      </trkpt>
      <trkpt lat="42.52055" lon="2.2185">
        <ele>948</ele>
        <time>2019-04-14T14:50:08Z</time>
      </trkpt>
      <trkpt lat="42.52059" lon="2.21861">
        <ele>944</ele>
        <time>2019-04-14T14:50:19Z</time>
      </trkpt>
      <trkpt lat="42.52062" lon="2.21873">
        <ele>940</ele>
        <time>2019-04-14T14:50:34Z</time>
      </trkpt>
      <trkpt lat="42.52071" lon="2.21869">
        <ele>936</ele>
        <time>2019-04-14T14:51:06Z</time>
      </trkpt>
      <trkpt lat="42.5207" lon="2.21881">
        <ele>932</ele>
        <time>2019-04-14T14:51:24Z</time>
      </trkpt>
      <trkpt lat="42.52073" lon="2.21893">
        <ele>930</ele>
        <time>2019-04-14T14:51:49Z</time>
      </trkpt>
      <trkpt lat="42.52081" lon="2.219">
        <ele>926</ele>
        <time>2019-04-14T14:52:00Z</time>
      </trkpt>
      <trkpt lat="42.52089" lon="2.21908">
        <ele>923</ele>
        <time>2019-04-14T14:52:08Z</time>
      </trkpt>
      <trkpt lat="42.52095" lon="2.21917">
        <ele>921</ele>
        <time>2019-04-14T14:52:15Z</time>
      </trkpt>
      <trkpt lat="42.52102" lon="2.21927">
        <ele>918</ele>
        <time>2019-04-14T14:52:23Z</time>
      </trkpt>
      <trkpt lat="42.52106" lon="2.21939">
        <ele>916</ele>
        <time>2019-04-14T14:52:34Z</time>
      </trkpt>
      <trkpt lat="42.52113" lon="2.21948">
        <ele>914</ele>
        <time>2019-04-14T14:52:43Z</time>
      </trkpt>
      <trkpt lat="42.52115" lon="2.21961">
        <ele>910</ele>
        <time>2019-04-14T14:52:58Z</time>
      </trkpt>
      <trkpt lat="42.52118" lon="2.21974">
        <ele>909</ele>
        <time>2019-04-14T14:53:08Z</time>
      </trkpt>
      <trkpt lat="42.52124" lon="2.21984">
        <ele>905</ele>
        <time>2019-04-14T14:53:24Z</time>
      </trkpt>
      <trkpt lat="42.52131" lon="2.21994">
        <ele>903</ele>
        <time>2019-04-14T14:53:34Z</time>
      </trkpt>
      <trkpt lat="42.52134" lon="2.22006">
        <ele>901</ele>
        <time>2019-04-14T14:53:52Z</time>
      </trkpt>
      <trkpt lat="42.5214" lon="2.22017">
        <ele>899</ele>
        <time>2019-04-14T14:54:02Z</time>
      </trkpt>
      <trkpt lat="42.52148" lon="2.22025">
        <ele>895</ele>
        <time>2019-04-14T14:54:21Z</time>
      </trkpt>
      <trkpt lat="42.52153" lon="2.22034">
        <ele>891</ele>
        <time>2019-04-14T14:54:35Z</time>
      </trkpt>
      <trkpt lat="42.52159" lon="2.22056">
        <ele>884</ele>
        <time>2019-04-14T14:55:12Z</time>
      </trkpt>
      <trkpt lat="42.52165" lon="2.22066">
        <ele>883</ele>
        <time>2019-04-14T14:55:21Z</time>
      </trkpt>
      <trkpt lat="42.5217" lon="2.22076">
        <ele>881</ele>
        <time>2019-04-14T14:55:30Z</time>
      </trkpt>
      <trkpt lat="42.52178" lon="2.2207">
        <ele>878</ele>
        <time>2019-04-14T14:55:43Z</time>
      </trkpt>
      <trkpt lat="42.52184" lon="2.2208">
        <ele>876</ele>
        <time>2019-04-14T14:55:53Z</time>
      </trkpt>
      <trkpt lat="42.52193" lon="2.22079">
        <ele>874</ele>
        <time>2019-04-14T14:56:03Z</time>
      </trkpt>
      <trkpt lat="42.52203" lon="2.22075">
        <ele>872</ele>
        <time>2019-04-14T14:56:13Z</time>
      </trkpt>
      <trkpt lat="42.52213" lon="2.22078">
        <ele>871</ele>
        <time>2019-04-14T14:56:20Z</time>
      </trkpt>
      <trkpt lat="42.5222" lon="2.22086">
        <ele>870</ele>
        <time>2019-04-14T14:56:29Z</time>
      </trkpt>
      <trkpt lat="42.5223" lon="2.22087">
        <ele>870</ele>
        <time>2019-04-14T14:56:38Z</time>
      </trkpt>
      <trkpt lat="42.52239" lon="2.22088">
        <ele>869</ele>
        <time>2019-04-14T14:56:48Z</time>
      </trkpt>
      <trkpt lat="42.52246" lon="2.22079">
        <ele>868</ele>
        <time>2019-04-14T14:56:58Z</time>
      </trkpt>
      <trkpt lat="42.52256" lon="2.22077">
        <ele>868</ele>
        <time>2019-04-14T14:57:09Z</time>
      </trkpt>
      <trkpt lat="42.52265" lon="2.22072">
        <ele>865</ele>
        <time>2019-04-14T14:57:17Z</time>
      </trkpt>
      <trkpt lat="42.52274" lon="2.22077">
        <ele>863</ele>
        <time>2019-04-14T14:57:27Z</time>
      </trkpt>
      <trkpt lat="42.52284" lon="2.22079">
        <ele>859</ele>
        <time>2019-04-14T14:57:37Z</time>
      </trkpt>
      <trkpt lat="42.52292" lon="2.22085">
        <ele>858</ele>
        <time>2019-04-14T14:57:54Z</time>
      </trkpt>
      <trkpt lat="42.52301" lon="2.22081">
        <ele>857</ele>
        <time>2019-04-14T14:58:05Z</time>
      </trkpt>
      <trkpt lat="42.52307" lon="2.22072">
        <ele>855</ele>
        <time>2019-04-14T14:58:17Z</time>
      </trkpt>
      <trkpt lat="42.52316" lon="2.22076">
        <ele>853</ele>
        <time>2019-04-14T14:58:29Z</time>
      </trkpt>
      <trkpt lat="42.52323" lon="2.22084">
        <ele>851</ele>
        <time>2019-04-14T14:58:42Z</time>
      </trkpt>
      <trkpt lat="42.5233" lon="2.22093">
        <ele>848</ele>
        <time>2019-04-14T14:58:50Z</time>
      </trkpt>
      <trkpt lat="42.52331" lon="2.22106">
        <ele>847</ele>
        <time>2019-04-14T14:59:06Z</time>
      </trkpt>
      <trkpt lat="42.52329" lon="2.22118">
        <ele>846</ele>
        <time>2019-04-14T14:59:23Z</time>
      </trkpt>
      <trkpt lat="42.52324" lon="2.22129">
        <ele>846</ele>
        <time>2019-04-14T14:59:33Z</time>
      </trkpt>
      <trkpt lat="42.52321" lon="2.22132">
        <ele>845</ele>
        <time>2019-04-14T14:59:50Z</time>
      </trkpt>
    </trkseg>
  </trk>
</gpx>